
Distance (Route):
Temperature : -3.4°C
Humidity : 10.8%
Pressure : 0hPa| Receiver | Date | Latitude | Longitude | Direction | Speed | Altitude | Climb | Temperature | Humidity | Pressure | Voltage | Killtimer | Uptime | BKT | XDATA |
|---|---|---|---|---|---|---|---|---|---|---|---|---|---|---|---|
| LZ4TU-5 | 2026-09-01 18:59:42 | 44.78548 | 21.34401 | 101° | 37km/h | 4944m | -17.5m/s | -3.4°C | 10.8% | 0hPa | 5.3V | 00:00:00 | 00:00:00 | 00:00:00 | |
| LZ4TU-5 | 2026-09-01 18:59:37 | 44.78553 | 21.34333 | 95° | 38km/h | 5025m | -17.4m/s | -3.7°C | 9.9% | 0hPa | 5.3V | 00:00:00 | 00:00:00 | 00:00:00 | |
| LZ4TU-5 | 2026-09-01 18:58:31 | 44.78521 | 21.33281 | 83° | 49km/h | 6226m | -18.3m/s | -11.7°C | 10.6% | 0hPa | 5.3V | 00:00:00 | 00:00:00 | 00:00:00 | |
| LZ4TU-5 | 2026-09-01 18:58:27 | 44.78515 | 21.33212 | 85° | 51km/h | 6295m | -18.5m/s | -12.1°C | 9.9% | 0hPa | 5.3V | 00:00:00 | 00:00:00 | 00:00:00 | |
| LZ4TU-5 | 2026-09-01 18:56:48 | 44.78469 | 21.30856 | 89° | 86km/h | 8216m | -20.9m/s | -26.3°C | 24.2% | 0hPa | 5.3V | 00:00:00 | 00:00:00 | 00:00:00 | |
| LZ4TU-5 | 2026-09-01 18:56:43 | 44.78464 | 21.30701 | 88° | 88km/h | 8307m | -20.9m/s | -27.1°C | 27.3% | 0hPa | 5.3V | 00:00:00 | 00:00:00 | 00:00:00 | |
| LZ4TU-5 | 2026-09-01 18:55:31 | 44.78379 | 21.28398 | 86° | 95km/h | 9850m | -21.9m/s | -39.3°C | 23.1% | 0hPa | 5.3V | 00:00:00 | 00:00:00 | 00:00:00 | |
| LZ4TU-5 | 2026-09-01 18:55:27 | 44.78370 | 21.28259 | 88° | 97km/h | 9935m | -22.1m/s | -40.0°C | 24.2% | 0hPa | 5.3V | 00:00:00 | 00:00:00 | 00:00:00 | |
| LZ4TU-5 | 2026-09-01 18:54:10 | 44.78188 | 21.25110 | 82° | 128km/h | 11755m | -24.3m/s | -51.3°C | 18.5% | 0hPa | 5.3V | 00:00:00 | 00:00:00 | 00:00:00 | |
| LZ4TU-5 | 2026-09-01 18:54:05 | 44.78159 | 21.24885 | 83° | 126km/h | 11871m | -24.3m/s | -52.3°C | 17.8% | 0hPa | 5.3V | 00:00:00 | 00:00:00 | 00:00:00 | |
| LZ4TU-5 | 2026-09-01 18:52:50 | 44.78008 | 21.21529 | 87° | 97km/h | 13850m | -28.1m/s | -57.4°C | 1.0% | 0hPa | 5.3V | 00:00:00 | 00:00:00 | 00:00:00 | |
| LZ4TU-5 | 2026-09-01 18:52:46 | 44.78000 | 21.21391 | 86° | 93km/h | 13959m | -28.6m/s | -57.4°C | 0.6% | 0hPa | 5.3V | 00:00:00 | 00:00:00 | 00:00:00 | |
| LZ4TU-5 | 2026-09-01 18:51:26 | 44.77919 | 21.19292 | 103° | 58km/h | 16501m | -34.2m/s | -60.3°C | 0.0% | 0hPa | 5.3V | 00:00:00 | 00:00:00 | 00:00:00 | |
| LZ4TU-5 | 2026-09-01 18:51:22 | 44.77928 | 21.19216 | 94° | 47km/h | 16631m | -34.7m/s | -58.5°C | 0.0% | 0hPa | 5.3V | 00:00:00 | 00:00:00 | 00:00:00 | |
| LZ4TU-5 | 2026-09-01 18:51:18 | 44.77924 | 21.19153 | 73° | 46km/h | 16776m | -35.6m/s | -57.9°C | 0.0% | 0hPa | 5.3V | 00:00:00 | 00:00:00 | 00:00:00 | |
| LZ4TU-5 | 2026-09-01 18:51:13 | 44.77900 | 21.19074 | 62° | 51km/h | 16960m | -35.8m/s | -59.1°C | 0.0% | 0hPa | 5.3V | 00:00:00 | 00:00:00 | 00:00:00 | |
| LZ4TU-5 | 2026-09-01 18:51:08 | 44.77868 | 21.18989 | 74° | 53km/h | 17133m | -36.5m/s | -58.5°C | 0.0% | 0hPa | 5.3V | 00:00:00 | 00:00:00 | 00:00:00 | |
| LZ4TU-5 | 2026-09-01 18:50:58 | 44.77847 | 21.18828 | 78° | 42km/h | 17510m | -37.8m/s | -57.0°C | 0.0% | 0hPa | 5.3V | 00:00:00 | 00:00:00 | 00:00:00 | |
| LZ4TU-5 | 2026-09-01 18:50:54 | 44.77838 | 21.18771 | 78° | 40km/h | 17654m | -38.1m/s | -55.9°C | 0.0% | 0hPa | 5.3V | 00:00:00 | 00:00:00 | 00:00:00 | |
| LZ4TU-5 | 2026-09-01 18:50:49 | 44.77829 | 21.18701 | 79° | 38km/h | 17852m | -39.1m/s | -55.7°C | 0.0% | 0hPa | 5.3V | 00:00:00 | 00:00:00 | 00:00:00 | |
| LZ4TU-5 | 2026-09-01 18:50:43 | 44.77814 | 21.18623 | 69° | 40km/h | 18094m | -39.8m/s | -56.2°C | 0.0% | 0hPa | 5.3V | 00:00:00 | 00:00:00 | 00:00:00 | |
| LZ4TU-5 | 2026-09-01 18:49:22 | 44.77801 | 21.18233 | 9° | 20km/h | 21747m | -53.9m/s | -52.7°C | 0.0% | 0hPa | 5.3V | 00:00:00 | 00:00:00 | 00:00:00 | |
| LZ4TU-5 | 2026-09-01 18:49:18 | 44.77779 | 21.18225 | 25° | 18km/h | 21947m | -54.5m/s | -53.3°C | 0.0% | 0hPa | 5.3V | 00:00:00 | 00:00:00 | 00:00:00 | |
| LZ4TU-5 | 2026-09-01 18:48:03 | 44.77905 | 21.17947 | 336° | 51km/h | 27840m | -6.5m/s | -46.3°C | 0.0% | 0hPa | 5.3V | 00:00:00 | 00:00:00 | 00:00:00 | |
| LZ4TU-5 | 2026-09-01 18:47:59 | 44.77894 | 21.17973 | 337° | 58km/h | 27966m | -3.0m/s | -44.7°C | 0.0% | 0hPa | 5.3V | 00:00:00 | 00:00:00 | 00:00:00 | |
| OE3JTB-15 | 2026-09-01 18:46:58 | 44.77861 | 21.18253 | 331° | 38km/h | 33267m | 9.5m/s | -34.6°C | 0% | 0hPa | 5.3V | 00:00:00 | 00:00:00 | 00:00:00 | |
| LZ4TU-5 | 2026-09-01 18:46:45 | 44.77668 | 21.18390 | 269° | 18km/h | 33135m | 8.5m/s | -36.0°C | 0.0% | 0hPa | 5.3V | 00:00:00 | 00:00:00 | 00:00:00 | |
| LZ4TU-5 | 2026-09-01 18:46:40 | 44.77677 | 21.18436 | 255° | 27km/h | 33098m | 6.6m/s | -36.0°C | 0.0% | 0hPa | 5.3V | 00:00:00 | 00:00:00 | 00:00:00 | |
| OE3JTB-15 | 2026-09-01 18:46:29 | 44.77648 | 21.18489 | 228° | 29km/h | 33017m | 4.1m/s | -36.1°C | 0% | 0hPa | 5.3V | 00:00:00 | 00:00:00 | 00:00:00 | |
| OE3JTB-15 | 2026-09-01 18:46:00 | 44.77556 | 21.18689 | 333° | 24km/h | 32822m | 5.6m/s | -36.4°C | 0% | 0hPa | 5.3V | 00:00:00 | 00:00:00 | 00:00:00 | |
| OE3JTB-15 | 2026-09-01 18:45:30 | 44.77486 | 21.18901 | 272° | 27km/h | 32627m | 9.2m/s | -38.0°C | 0% | 0hPa | 5.3V | 00:00:00 | 00:00:00 | 00:00:00 | |
| LZ4TU-5 | 2026-09-01 18:45:25 | 44.77467 | 21.18943 | 257° | 20km/h | 32592m | 8.2m/s | -38.1°C | 0.0% | 0hPa | 5.4V | 00:00:00 | 00:00:00 | 00:00:00 | |
| LZ4TU-5 | 2026-09-01 18:45:21 | 44.77469 | 21.18965 | 258° | 29km/h | 32560m | 7.5m/s | -38.3°C | 0% | 0hPa | 5.4V | 00:00:00 | 00:00:00 | 00:00:00 | |
| OE3JTB-15 | 2026-09-01 18:44:59 | 44.77439 | 21.19127 | 336° | 22km/h | 32392m | 7.1m/s | -38.2°C | 0% | 0hPa | 5.4V | 00:00:00 | 00:00:00 | 00:00:00 | |
| OE3JTB-15 | 2026-09-01 18:44:30 | 44.77432 | 21.19312 | 237° | 27km/h | 32179m | 7.1m/s | -38.3°C | 0% | 0hPa | 5.4V | 00:00:00 | 00:00:00 | 00:00:00 | |
| OE3JTB-15 | 2026-09-01 18:44:01 | 44.77572 | 21.19492 | 211° | 24km/h | 31964m | 6.5m/s | -38.7°C | 0% | 0hPa | 5.4V | 00:00:00 | 00:00:00 | 00:00:00 | |
| LZ4TU-5 | 2026-09-01 18:44:00 | 44.77577 | 21.19498 | 229° | 29km/h | 31957m | 6.4m/s | -38.7°C | 0.0% | 0hPa | 5.4V | 00:00:00 | 00:00:00 | 00:00:00 | |
| LZ4TU-5 | 2026-09-01 18:43:55 | 44.77598 | 21.19534 | 210° | 24km/h | 31921m | 6.0m/s | -38.8°C | 0.0% | 0hPa | 5.4V | 00:00:00 | 00:00:00 | 00:00:00 | |
| OE3JTB-15 | 2026-09-01 18:43:31 | 44.77729 | 21.19567 | 209° | 18km/h | 31762m | 7.3m/s | -38.9°C | 0% | 0hPa | 5.4V | 00:00:00 | 00:00:00 | 00:00:00 | |
| OE3JTB-15 | 2026-09-01 18:43:02 | 44.77789 | 21.19677 | 296° | 22km/h | 31550m | 6.6m/s | -38.9°C | 0% | 0hPa | 5.4V | 00:00:00 | 00:00:00 | 00:00:00 | |
| LZ4TU-5 | 2026-09-01 18:42:41 | 44.77808 | 21.19823 | 243° | 18km/h | 31398m | 5.6m/s | -39.4°C | 0.0% | 0hPa | 5.4V | 00:00:00 | 00:00:00 | 00:00:00 | |
| LZ4TU-5 | 2026-09-01 18:42:37 | 44.77812 | 21.19837 | 192° | 18km/h | 31371m | 5.7m/s | -39.5°C | 0.0% | 0hPa | 5.4V | 00:00:00 | 00:00:00 | 00:00:00 | |
| OE3JTB-15 | 2026-09-01 18:42:31 | 44.77824 | 21.19900 | 249° | 24km/h | 31333m | 5.0m/s | -39.7°C | 0% | 0hPa | 5.4V | 00:00:00 | 00:00:00 | 00:00:00 | |
| OE3JTB-15 | 2026-09-01 18:42:02 | 44.77962 | 21.20010 | 223° | 26km/h | 31137m | 5.8m/s | -39.7°C | 0% | 0hPa | 5.4V | 00:00:00 | 00:00:00 | 00:00:00 | |
| OE3JTB-15 | 2026-09-01 18:41:32 | 44.78105 | 21.20130 | 185° | 24km/h | 30940m | 7.4m/s | -40.3°C | 0% | 0hPa | 5.4V | 00:00:00 | 00:00:00 | 00:00:00 | |
| LZ4TU-5 | 2026-09-01 18:41:23 | 44.78154 | 21.20118 | 182° | 22km/h | 30874m | 6.9m/s | -40.6°C | 0.0% | 0hPa | 5.4V | 00:00:00 | 00:00:00 | 00:00:00 | |
| LZ4TU-5 | 2026-09-01 18:41:19 | 44.78178 | 21.20113 | 178° | 26km/h | 30843m | 6.4m/s | -40.7°C | 0.0% | 0hPa | 5.4V | 00:00:00 | 00:00:00 | 00:00:00 | |
| LZ4TU-5 | 2026-09-01 18:41:15 | 44.78205 | 21.20106 | 154° | 35km/h | 30816m | 6.3m/s | -41.0°C | 0.0% | 0hPa | 5.4V | 00:00:00 | 00:00:00 | 00:00:00 | |
| LZ4TU-5 | 2026-09-01 18:41:10 | 44.78228 | 21.20084 | 90° | 5km/h | 30782m | 6.5m/s | -41.2°C | 0.0% | 0hPa | 5.4V | 00:00:00 | 00:00:00 | 00:00:00 | |
| OE3JTB-15 | 2026-09-01 18:41:03 | 44.78264 | 21.20052 | 180° | 15km/h | 30731m | 7.0m/s | -41.1°C | 0% | 0hPa | 5.4V | 00:00:00 | 00:00:00 | 00:00:00 | |
| OE3JTB-15 | 2026-09-01 18:40:33 | 44.78312 | 21.20052 | 279° | 18km/h | 30517m | 7.5m/s | -42.0°C | 0% | 0hPa | 5.4V | 00:00:00 | 00:00:00 | 00:00:00 | |
| OE3JTB-15 | 2026-09-01 18:40:01 | 44.78296 | 21.20215 | 204° | 15km/h | 30285m | 7.2m/s | -42.0°C | 0% | 0hPa | 5.4V | 00:00:00 | 00:00:00 | 00:00:00 | |
| LZ4TU-5 | 2026-09-01 18:39:58 | 44.78307 | 21.20232 | 242° | 29km/h | 30265m | 7.9m/s | -42.5°C | 0.0% | 0hPa | 5.4V | 00:00:00 | 00:00:00 | 00:00:00 | |
| LZ4TU-5 | 2026-09-01 18:39:54 | 44.78305 | 21.20267 | 290° | 16km/h | 30239m | 7.2m/s | -42.6°C | 0.0% | 0hPa | 5.4V | 00:00:00 | 00:00:00 | 00:00:00 | |
| LZ4TU-5 | 2026-09-01 18:39:50 | 44.78311 | 21.20276 | 199° | 13km/h | 30208m | 7.7m/s | -42.7°C | 0.0% | 0hPa | 5.4V | 00:00:00 | 00:00:00 | 00:00:00 | |
| LZ4TU-5 | 2026-09-01 18:39:46 | 44.78319 | 21.20295 | 234° | 15km/h | 30178m | 7.5m/s | -42.9°C | 0.0% | 0hPa | 5.4V | 00:00:00 | 00:00:00 | 00:00:00 | |
| OE3JTB-15 | 2026-09-01 18:39:32 | 44.78351 | 21.20310 | 344° | 20km/h | 30081m | 6.9m/s | -42.5°C | 0% | 0hPa | 5.4V | 00:00:00 | 00:00:00 | 00:00:00 | |
| OE3JTB-15 | 2026-09-01 18:39:03 | 44.78436 | 21.20433 | 182° | 20km/h | 29880m | 8.0m/s | -42.3°C | 0% | 0hPa | 5.4V | 00:00:00 | 00:00:00 | 00:00:00 | |
| OE3JTB-15 | 2026-09-01 18:38:34 | 44.78532 | 21.20526 | 181° | 13km/h | 29672m | 6.1m/s | -43.1°C | 0% | 0hPa | 5.4V | 00:00:00 | 00:00:00 | 00:00:00 | |
| LZ4TU-5 | 2026-09-01 18:38:33 | 44.78535 | 21.20525 | 151° | 9km/h | 29666m | 6.0m/s | -43.6°C | 0.0% | 0hPa | 5.4V | 00:00:00 | 00:00:00 | 00:00:00 | |
| LZ4TU-5 | 2026-09-01 18:38:28 | 44.78546 | 21.20543 | 234° | 29km/h | 29633m | 6.3m/s | -43.7°C | 0.0% | 0hPa | 5.4V | 00:00:00 | 00:00:00 | 00:00:00 | |
| OE3JTB-15 | 2026-09-01 18:38:05 | 44.78601 | 21.20580 | 225° | 20km/h | 29476m | 7.5m/s | -43.7°C | 0% | 0hPa | 5.4V | 00:00:00 | 00:00:00 | 00:00:00 | |
| OE3JTB-15 | 2026-09-01 18:37:33 | 44.78718 | 21.20646 | 261° | 18km/h | 29243m | 7.0m/s | -45.5°C | 0% | 0hPa | 5.4V | 00:00:00 | 00:00:00 | 00:00:00 | |
| LZ4TU-5 | 2026-09-01 18:37:14 | 44.78781 | 21.20614 | 240° | 16km/h | 29111m | 6.4m/s | -46.1°C | 0.0% | 0hPa | 5.4V | 00:00:00 | 00:00:00 | 00:00:00 | |
| LZ4TU-5 | 2026-09-01 18:37:09 | 44.78788 | 21.20613 | 108° | 5km/h | 29076m | 6.6m/s | -45.8°C | 0.0% | 0hPa | 5.4V | 00:00:00 | 00:00:00 | 00:00:00 | |
| OE3JTB-15 | 2026-09-01 18:37:04 | 44.78801 | 21.20634 | 223° | 16km/h | 29043m | 7.0m/s | -45.3°C | 0% | 0hPa | 5.4V | 00:00:00 | 00:00:00 | 00:00:00 | |
| OE3JTB-15 | 2026-09-01 18:36:35 | 44.78852 | 21.20781 | 250° | 26km/h | 28833m | 6.8m/s | -45.3°C | 0% | 0hPa | 5.4V | 00:00:00 | 00:00:00 | 00:00:00 | |
| OE3JTB-15 | 2026-09-01 18:36:06 | 44.78999 | 21.20809 | 128° | 16km/h | 28623m | 6.4m/s | -45.5°C | 0% | 0hPa | 5.4V | 00:00:00 | 00:00:00 | 00:00:00 | |
| LZ4TU-5 | 2026-09-01 18:35:55 | 44.79040 | 21.20817 | 146° | 15km/h | 28543m | 6.0m/s | -46.2°C | 0.0% | 0hPa | 5.4V | 00:00:00 | 00:00:00 | 00:00:00 | |
| LZ4TU-5 | 2026-09-01 18:35:52 | 44.79059 | 21.20799 | 187° | 18km/h | 28516m | 6.0m/s | -46.3°C | 0.0% | 0hPa | 5.4V | 00:00:00 | 00:00:00 | 00:00:00 | |
| OE3JTB-15 | 2026-09-01 18:35:37 | 44.79109 | 21.20753 | 130° | 22km/h | 28429m | 7.3m/s | -46.1°C | 0% | 0hPa | 5.4V | 00:00:00 | 00:00:00 | 00:00:00 | |
| OM5KV | 2026-09-01 18:35:12 | 44.79167 | 21.20593 | 98° | 26km/h | 28260m | 6.3m/s | -46.7°C | 0.0% | 0hPa | 5.4V | 00:00:00 | 00:00:00 | 00:00:00 | |
| OE3JTB-15 | 2026-09-01 18:35:06 | 44.79168 | 21.20543 | 110° | 16km/h | 28219m | 5.8m/s | -46.0°C | 0% | 0hPa | 5.4V | 00:00:00 | 00:00:00 | 00:00:00 | |
| OM5KV | 2026-09-01 18:34:59 | 44.79158 | 21.20493 | 70° | 13km/h | 28171m | 6.6m/s | -46.8°C | 0.0% | 0hPa | 5.5V | 00:00:00 | 00:00:00 | 00:00:00 | |
| OM5KV | 2026-09-01 18:34:53 | 44.79158 | 21.20443 | 106° | 22km/h | 28128m | 6.5m/s | -46.6°C | 0.0% | 0hPa | 5.5V | 00:00:00 | 00:00:00 | 00:00:00 | |
| OM5KV | 2026-09-01 18:34:42 | 44.79150 | 21.20396 | 102° | 18km/h | 28052m | 7.5m/s | -46.7°C | 0.0% | 0hPa | 5.5V | 00:00:00 | 00:00:00 | 00:00:00 | |
| OE3JTB-15 | 2026-09-01 18:34:34 | 44.79152 | 21.20355 | 103° | 15km/h | 27997m | 5.9m/s | -46.6°C | 0% | 0hPa | 5.5V | 00:00:00 | 00:00:00 | 00:00:00 | |
| OM5KV | 2026-09-01 18:34:31 | 44.79148 | 21.20342 | 27° | 11km/h | 27978m | 8.2m/s | -47.2°C | 0.0% | 0hPa | 5.5V | 00:00:00 | 00:00:00 | 00:00:00 | |
| OM5KV | 2026-09-01 18:34:27 | 44.79129 | 21.20346 | 12° | 22km/h | 27952m | 6.6m/s | -47.3°C | 0.0% | 0hPa | 5.5V | 00:00:00 | 00:00:00 | 00:00:00 | |
| OM5KV | 2026-09-01 18:34:25 | 44.79119 | 21.20336 | 61° | 24km/h | 27937m | 6.5m/s | -47.3°C | 0.0% | 0hPa | 5.5V | 00:00:00 | 00:00:00 | 00:00:00 | |
| OM5KV | 2026-09-01 18:34:21 | 44.79118 | 21.20317 | 70° | 7km/h | 27910m | 6.9m/s | -47.5°C | 0.0% | 0hPa | 5.5V | 00:00:00 | 00:00:00 | 00:00:00 | |
| OM5KV | 2026-09-01 18:34:20 | 44.79117 | 21.20314 | 63° | 9km/h | 27903m | 6.9m/s | -47.6°C | 0.0% | 0hPa | 5.5V | 00:00:00 | 00:00:00 | 00:00:00 | |
| LZ4TU-5 | 2026-09-01 18:34:19 | 44.79115 | 21.20311 | 45° | 13km/h | 27893m | 6.4m/s | -47.6°C | 0.0% | 0hPa | 5.5V | 00:00:00 | 00:00:00 | 00:00:00 | |
| OM5KV | 2026-09-01 18:34:16 | 44.79105 | 21.20306 | 3° | 7km/h | 27875m | 6.6m/s | -47.6°C | 0.0% | 0hPa | 5.5V | 00:00:00 | 00:00:00 | 00:00:00 | |
| LZ4TU-5 | 2026-09-01 18:34:15 | 44.79103 | 21.20306 | 6° | 7km/h | 27868m | 6.5m/s | -47.6°C | 0.0% | 0hPa | 5.5V | 00:00:00 | 00:00:00 | 00:00:00 | |
| OM5KV | 2026-09-01 18:34:11 | 44.79097 | 21.20295 | 38° | 11km/h | 27842m | 6.4m/s | -47.7°C | 0.0% | 0hPa | 5.5V | 00:00:00 | 00:00:00 | 00:00:00 | |
| OM5KV | 2026-09-01 18:34:05 | 44.79083 | 21.20290 | 338° | 9km/h | 27802m | 6.4m/s | -47.6°C | 0.0% | 0hPa | 5.5V | 00:00:00 | 00:00:00 | 00:00:00 | |
| OE3JTB-15 | 2026-09-01 18:34:02 | 44.79077 | 21.20291 | 19° | 7km/h | 27783m | 6.5m/s | -47.0°C | 0% | 0hPa | 5.5V | 00:00:00 | 00:00:00 | 00:00:00 | |
| OM5KV | 2026-09-01 18:33:59 | 44.79072 | 21.20282 | 106° | 11km/h | 27763m | 6.8m/s | -47.5°C | 0.0% | 0hPa | 5.5V | 00:00:00 | 00:00:00 | 00:00:00 | |
| OM5KV | 2026-09-01 18:33:53 | 44.79073 | 21.20280 | 320° | 13km/h | 27722m | 6.8m/s | -47.5°C | 0.0% | 0hPa | 5.5V | 00:00:00 | 00:00:00 | 00:00:00 | |
| OM5KV | 2026-09-01 18:33:51 | 44.79071 | 21.20282 | 358° | 5km/h | 27708m | 6.8m/s | -47.6°C | 0.0% | 0hPa | 5.5V | 00:00:00 | 00:00:00 | 00:00:00 | |
| OM5KV | 2026-09-01 18:33:45 | 44.79073 | 21.20269 | 141° | 2km/h | 27665m | 6.6m/s | -47.8°C | 0.0% | 0hPa | 5.5V | 00:00:00 | 00:00:00 | 00:00:00 | |
| OM5KV | 2026-09-01 18:33:37 | 44.79057 | 21.20264 | 114° | 5km/h | 27610m | 6.4m/s | -48.0°C | 0.0% | 0hPa | 5.5V | 00:00:00 | 00:00:00 | 00:00:00 | |
| OM5KV | 2026-09-01 18:33:35 | 44.79061 | 21.20260 | 291° | 11km/h | 27598m | 6.4m/s | -48.0°C | 0.0% | 0hPa | 5.5V | 00:00:00 | 00:00:00 | 00:00:00 | |
| OM5KV | 2026-09-01 18:33:31 | 44.79053 | 21.20274 | 329° | 18km/h | 27571m | 6.4m/s | -48.1°C | 0.0% | 0hPa | 5.5V | 00:00:00 | 00:00:00 | 00:00:00 | |
| OM5KV | 2026-09-01 18:33:30 | 44.79048 | 21.20279 | 337° | 13km/h | 27564m | 6.3m/s | -48.1°C | 0.0% | 0hPa | 5.5V | 00:00:00 | 00:00:00 | 00:00:00 | |
| OM5KV | 2026-09-01 18:33:24 | 44.79037 | 21.20279 | 3° | 7km/h | 27525m | 6.4m/s | -47.9°C | 0.0% | 0hPa | 5.5V | 00:00:00 | 00:00:00 | 00:00:00 | |
| OM5KV | 2026-09-01 18:33:13 | 44.79010 | 21.20309 | 356° | 4km/h | 27454m | 6.6m/s | -47.8°C | 0.0% | 0hPa | 5.5V | 00:00:00 | 00:00:00 | 00:00:00 | |
| OM5KV | 2026-09-01 18:33:12 | 44.79009 | 21.20310 | 0° | 0km/h | 27448m | 6.7m/s | -47.8°C | 0.0% | 0hPa | 5.5V | 00:00:00 | 00:00:00 | 00:00:00 | |
| OM5KV | 2026-09-01 18:33:07 | 44.79008 | 21.20313 | 306° | 9km/h | 27413m | 6.6m/s | -47.7°C | 0.0% | 0hPa | 5.5V | 00:00:00 | 00:00:00 | 00:00:00 | |
| OM5KV | 2026-09-01 18:33:01 | 44.78994 | 21.20322 | 32° | 4km/h | 27371m | 6.7m/s | -47.9°C | 0.0% | 0hPa | 5.5V | 00:00:00 | 00:00:00 | 00:00:00 | |
| LZ4TU-5 | 2026-09-01 18:33:00 | 44.78993 | 21.20321 | 105° | 4km/h | 27364m | 6.7m/s | -47.9°C | 0.0% | 0hPa | 5.5V | 00:00:00 | 00:00:00 | 00:00:00 | |
| OM5KV | 2026-09-01 18:32:57 | 44.78995 | 21.20317 | 138° | 4km/h | 27344m | 6.8m/s | -48.0°C | 0.0% | 0hPa | 5.5V | 00:00:00 | 00:00:00 | 00:00:00 | |
| LZ4TU-5 | 2026-09-01 18:32:56 | 44.78997 | 21.20316 | 283° | 4km/h | 27337m | 6.9m/s | -47.9°C | 0.0% | 0hPa | 5.5V | 00:00:00 | 00:00:00 | 00:00:00 | |
| OM5KV | 2026-09-01 18:32:55 | 44.78997 | 21.20317 | 297° | 7km/h | 27330m | 6.8m/s | -47.9°C | 0.0% | 0hPa | 5.5V | 00:00:00 | 00:00:00 | 00:00:00 | |
| OM5KV | 2026-09-01 18:32:49 | 44.78989 | 21.20318 | 46° | 11km/h | 27288m | 6.7m/s | -47.7°C | 0.0% | 0hPa | 5.5V | 00:00:00 | 00:00:00 | 00:00:00 | |
| OM5KV | 2026-09-01 18:32:46 | 44.78985 | 21.20313 | 346° | 2km/h | 27268m | 6.7m/s | -47.6°C | 0.0% | 0hPa | 5.5V | 00:00:00 | 00:00:00 | 00:00:00 | |
| OM5KV | 2026-09-01 18:32:44 | 44.78984 | 21.20313 | 0° | 0km/h | 27255m | 6.7m/s | -47.6°C | 0.0% | 0hPa | 5.5V | 00:00:00 | 00:00:00 | 00:00:00 | |
| OM5KV | 2026-09-01 18:32:40 | 44.78979 | 21.20306 | 48° | 13km/h | 27227m | 6.6m/s | -47.5°C | 0.0% | 0hPa | 5.5V | 00:00:00 | 00:00:00 | 00:00:00 | |
| OM5KV | 2026-09-01 18:32:38 | 44.78974 | 21.20296 | 55° | 15km/h | 27213m | 6.6m/s | -47.4°C | 0.0% | 0hPa | 5.5V | 00:00:00 | 00:00:00 | 00:00:00 | |
| OM5KV | 2026-09-01 18:32:34 | 44.78968 | 21.20285 | 332° | 7km/h | 27185m | 6.6m/s | -47.3°C | 0.0% | 0hPa | 5.5V | 00:00:00 | 00:00:00 | 00:00:00 | |
| OM5KV | 2026-09-01 18:32:33 | 44.78967 | 21.20286 | 309° | 7km/h | 27179m | 6.6m/s | -47.3°C | 0.0% | 0hPa | 5.5V | 00:00:00 | 00:00:00 | 00:00:00 | |
| OM5KV | 2026-09-01 18:32:28 | 44.78959 | 21.20291 | 54° | 7km/h | 27140m | 6.7m/s | -47.2°C | 0.0% | 0hPa | 5.5V | 00:00:00 | 00:00:00 | 00:00:00 | |
| OM5KV | 2026-09-01 18:32:23 | 44.78959 | 21.20283 | 0° | 0km/h | 27113m | 6.7m/s | -47.2°C | 0.0% | 0hPa | 5.5V | 00:00:00 | 00:00:00 | 00:00:00 | |
| OM5KV | 2026-09-01 18:32:22 | 44.78959 | 21.20283 | 306° | 5km/h | 27106m | 6.6m/s | -47.3°C | 0.0% | 0hPa | 5.5V | 00:00:00 | 00:00:00 | 00:00:00 | |
| OM5KV | 2026-09-01 18:32:16 | 44.78953 | 21.20303 | 316° | 7km/h | 27067m | 6.5m/s | -47.3°C | 0.0% | 0hPa | 5.5V | 00:00:00 | 00:00:00 | 00:00:00 | |
| OM5KV | 2026-09-01 18:32:11 | 44.78950 | 21.20309 | 272° | 9km/h | 27034m | 6.4m/s | -47.5°C | 0.0% | 0hPa | 5.5V | 00:00:00 | 00:00:00 | 00:00:00 | |
| OM5KV | 2026-09-01 18:32:10 | 44.78950 | 21.20313 | 278° | 9km/h | 27027m | 6.3m/s | -47.5°C | 0.0% | 0hPa | 5.5V | 00:00:00 | 00:00:00 | 00:00:00 | |
| OM5KV | 2026-09-01 18:32:05 | 44.78945 | 21.20326 | 291° | 4km/h | 26996m | 6.5m/s | -47.7°C | 0.0% | 0hPa | 5.5V | 00:00:00 | 00:00:00 | 00:00:00 | |
| OM5KV | 2026-09-01 18:32:04 | 44.78944 | 21.20327 | 0° | 0km/h | 26989m | 6.4m/s | -47.9°C | 0.0% | 0hPa | 5.5V | 00:00:00 | 00:00:00 | 00:00:00 | |
| OM5KV | 2026-09-01 18:32:00 | 44.78949 | 21.20323 | 276° | 4km/h | 26964m | 6.5m/s | -48.2°C | 0.0% | 0hPa | 5.5V | 00:00:00 | 00:00:00 | 00:00:00 | |
| OM5KV | 2026-09-01 18:31:59 | 44.78950 | 21.20323 | 304° | 7km/h | 26957m | 6.6m/s | -48.2°C | 0.0% | 0hPa | 5.5V | 00:00:00 | 00:00:00 | 00:00:00 | |
| OE3JTB-15 | 2026-09-01 18:31:56 | 44.78947 | 21.20330 | 327° | 15km/h | 26939m | 6.6m/s | -47.9°C | 0% | 0hPa | 5.5V | 00:00:00 | 00:00:00 | 00:00:00 | |
| OM5KV | 2026-09-01 18:31:54 | 44.78945 | 21.20329 | 14° | 9km/h | 26927m | 6.6m/s | -48.4°C | 0.0% | 0hPa | 5.5V | 00:00:00 | 00:00:00 | 00:00:00 | |
| OM5KV | 2026-09-01 18:31:53 | 44.78943 | 21.20327 | 20° | 9km/h | 26921m | 6.7m/s | -48.4°C | 0.0% | 0hPa | 5.5V | 00:00:00 | 00:00:00 | 00:00:00 | |
| OM5KV | 2026-09-01 18:31:48 | 44.78937 | 21.20319 | 332° | 9km/h | 26890m | 6.6m/s | -48.6°C | 0.0% | 0hPa | 5.5V | 00:00:00 | 00:00:00 | 00:00:00 | |
| OM5KV | 2026-09-01 18:31:42 | 44.78915 | 21.20329 | 329° | 13km/h | 26853m | 6.7m/s | -48.5°C | 0.0% | 0hPa | 5.5V | 00:00:00 | 00:00:00 | 00:00:00 | |
| OM5KV | 2026-09-01 18:31:37 | 44.78911 | 21.20330 | 275° | 15km/h | 26824m | 7.0m/s | -48.4°C | 0.0% | 0hPa | 5.5V | 00:00:00 | 00:00:00 | 00:00:00 | |
| OM5KV | 2026-09-01 18:31:36 | 44.78911 | 21.20334 | 281° | 18km/h | 26817m | 7.0m/s | -48.4°C | 0.0% | 0hPa | 5.5V | 00:00:00 | 00:00:00 | 00:00:00 | |
| OM5KV | 2026-09-01 18:31:31 | 44.78897 | 21.20366 | 314° | 11km/h | 26784m | 7.0m/s | -48.5°C | 0.0% | 0hPa | 5.5V | 00:00:00 | 00:00:00 | 00:00:00 | |
| OM5KV | 2026-09-01 18:31:30 | 44.78893 | 21.20369 | 289° | 7km/h | 26778m | 7.0m/s | -48.6°C | 0.0% | 0hPa | 5.5V | 00:00:00 | 00:00:00 | 00:00:00 | |
| OE3JTB-15 | 2026-09-01 18:31:25 | 44.78895 | 21.20389 | 224° | 13km/h | 26746m | 7.3m/s | -48.0°C | 0% | 0hPa | 5.5V | 00:00:00 | 00:00:00 | 00:00:00 | |
| OM5KV | 2026-09-01 18:31:20 | 44.78906 | 21.20414 | 284° | 11km/h | 26711m | 7.3m/s | -48.5°C | 0.0% | 0hPa | 5.5V | 00:00:00 | 00:00:00 | 00:00:00 | |
| OM5KV | 2026-09-01 18:31:19 | 44.78904 | 21.20419 | 250° | 7km/h | 26705m | 7.4m/s | -48.4°C | 0.0% | 0hPa | 5.5V | 00:00:00 | 00:00:00 | 00:00:00 | |
| OM5KV | 2026-09-01 18:31:14 | 44.78914 | 21.20431 | 214° | 22km/h | 26671m | 7.8m/s | -48.5°C | 0.0% | 0hPa | 5.5V | 00:00:00 | 00:00:00 | 00:00:00 | |
| OM5KV | 2026-09-01 18:31:02 | 44.78955 | 21.20478 | 183° | 31km/h | 26583m | 7.3m/s | -48.6°C | 0.0% | 0hPa | 5.5V | 00:00:00 | 00:00:00 | 00:00:00 | |
| OM5KV | 2026-09-01 18:31:01 | 44.78962 | 21.20480 | 197° | 26km/h | 26576m | 6.9m/s | -48.6°C | 0.0% | 0hPa | 5.5V | 00:00:00 | 00:00:00 | 00:00:00 | |
| OM5KV | 2026-09-01 18:30:57 | 44.78978 | 21.20487 | 162° | 15km/h | 26553m | 6.7m/s | -48.4°C | 0.0% | 0hPa | 5.5V | 00:00:00 | 00:00:00 | 00:00:00 | |
| OM5KV | 2026-09-01 18:30:55 | 44.78979 | 21.20484 | 101° | 9km/h | 26542m | 7.5m/s | -48.4°C | 0.0% | 0hPa | 5.5V | 00:00:00 | 00:00:00 | 00:00:00 | |
| OE3JTB-15 | 2026-09-01 18:30:52 | 44.78977 | 21.20475 | 121° | 24km/h | 26518m | 8.0m/s | -47.9°C | 0% | 0hPa | 5.5V | 00:00:00 | 00:00:00 | 00:00:00 | |
| OM5KV | 2026-09-01 18:30:50 | 44.78984 | 21.20467 | 152° | 20km/h | 26502m | 8.0m/s | -48.5°C | 0.0% | 0hPa | 5.5V | 00:00:00 | 00:00:00 | 00:00:00 | |
| OM5KV | 2026-09-01 18:30:43 | 44.78997 | 21.20451 | 59° | 7km/h | 26450m | 8.0m/s | -49.0°C | 0.0% | 0hPa | 5.5V | 00:00:00 | 00:00:00 | 00:00:00 | |
| OM5KV | 2026-09-01 18:30:40 | 44.78987 | 21.20447 | 127° | 20km/h | 26427m | 8.4m/s | -49.1°C | 0.0% | 0hPa | 5.5V | 00:00:00 | 00:00:00 | 00:00:00 | |
| OM5KV | 2026-09-01 18:30:32 | 44.78979 | 21.20419 | 144° | 15km/h | 26361m | 8.2m/s | -49.3°C | 0.0% | 0hPa | 5.5V | 00:00:00 | 00:00:00 | 00:00:00 | |
| OM5KV | 2026-09-01 18:30:29 | 44.78990 | 21.20408 | 164° | 33km/h | 26339m | 8.2m/s | -49.4°C | 0.0% | 0hPa | 5.5V | 00:00:00 | 00:00:00 | 00:00:00 | |
| OM5KV | 2026-09-01 18:30:27 | 44.79007 | 21.20401 | 176° | 27km/h | 26323m | 8.5m/s | -49.6°C | 0.0% | 0hPa | 5.5V | 00:00:00 | 00:00:00 | 00:00:00 | |
| OE3JTB-15 | 2026-09-01 18:30:23 | 44.79038 | 21.20380 | 154° | 11km/h | 26294m | 7.7m/s | -49.2°C | 0% | 0hPa | 5.5V | 00:00:00 | 00:00:00 | 00:00:00 | |
| OM5KV | 2026-09-01 18:30:21 | 44.79046 | 21.20374 | 187° | 2km/h | 26276m | 7.0m/s | -49.8°C | 0.0% | 0hPa | 5.5V | 00:00:00 | 00:00:00 | 00:00:00 | |
| LZ4TU-5 | 2026-09-01 18:30:19 | 44.79045 | 21.20375 | 229° | 5km/h | 26263m | 7.6m/s | -49.7°C | 0.0% | 0hPa | 5.5V | 00:00:00 | 00:00:00 | 00:00:00 | |
| OM5KV | 2026-09-01 18:30:17 | 44.79048 | 21.20378 | 211° | 11km/h | 26248m | 7.4m/s | -49.7°C | 0.0% | 0hPa | 5.5V | 00:00:00 | 00:00:00 | 00:00:00 | |
| OM5KV | 2026-09-01 18:30:16 | 44.79050 | 21.20380 | 221° | 13km/h | 26240m | 7.4m/s | -49.7°C | 0.0% | 0hPa | 5.5V | 00:00:00 | 00:00:00 | 00:00:00 | |
| OM5KV | 2026-09-01 18:30:12 | 44.79065 | 21.20364 | 114° | 24km/h | 26210m | 6.6m/s | -49.6°C | 0.0% | 0hPa | 5.5V | 00:00:00 | 00:00:00 | 00:00:00 | |
| OM5KV | 2026-09-01 18:30:10 | 44.79066 | 21.20353 | 68° | 7km/h | 26196m | 6.3m/s | -49.5°C | 0.0% | 0hPa | 5.5V | 00:00:00 | 00:00:00 | 00:00:00 | |
| OM5KV | 2026-09-01 18:30:06 | 44.79061 | 21.20346 | 105° | 5km/h | 26171m | 6.7m/s | -49.4°C | 0.0% | 0hPa | 5.5V | 00:00:00 | 00:00:00 | 00:00:00 | |
| OM5KV | 2026-09-01 18:30:05 | 44.79061 | 21.20345 | 126° | 9km/h | 26164m | 6.6m/s | -49.4°C | 0.0% | 0hPa | 5.5V | 00:00:00 | 00:00:00 | 00:00:00 | |
| OM5KV | 2026-09-01 18:29:59 | 44.79069 | 21.20329 | 86° | 13km/h | 26126m | 6.6m/s | -49.6°C | 0.0% | 0hPa | 5.5V | 00:00:00 | 00:00:00 | 00:00:00 | |
| OM5KV | 2026-09-01 18:29:54 | 44.79061 | 21.20317 | 61° | 5km/h | 26092m | 6.7m/s | -50.0°C | 0.0% | 0hPa | 5.5V | 00:00:00 | 00:00:00 | 00:00:00 | |
| OE3JTB-15 | 2026-09-01 18:29:53 | 44.79060 | 21.20315 | 87° | 11km/h | 26085m | 6.7m/s | -49.4°C | 0% | 0hPa | 5.5V | 00:00:00 | 00:00:00 | 00:00:00 | |
| OM5KV | 2026-09-01 18:29:49 | 44.79055 | 21.20296 | 58° | 26km/h | 26054m | 6.1m/s | -49.9°C | 0.0% | 0hPa | 5.5V | 00:00:00 | 00:00:00 | 00:00:00 | |
| OM5KV | 2026-09-01 18:29:42 | 44.79039 | 21.20251 | 38° | 13km/h | 26010m | 6.6m/s | -50.0°C | 0.0% | 0hPa | 5.5V | 00:00:00 | 00:00:00 | 00:00:00 | |
| OM5KV | 2026-09-01 18:29:38 | 44.79030 | 21.20240 | 67° | 9km/h | 25982m | 6.6m/s | -50.1°C | 0.0% | 0hPa | 5.5V | 00:00:00 | 00:00:00 | 00:00:00 | |
| OM5KV | 2026-09-01 18:29:37 | 44.79029 | 21.20236 | 65° | 13km/h | 25975m | 6.5m/s | -50.1°C | 0.0% | 0hPa | 5.5V | 00:00:00 | 00:00:00 | 00:00:00 | |
| OM5KV | 2026-09-01 18:29:32 | 44.79022 | 21.20212 | 68° | 5km/h | 25941m | 6.4m/s | -50.2°C | 0.0% | 0hPa | 5.5V | 00:00:00 | 00:00:00 | 00:00:00 | |
| OM5KV | 2026-09-01 18:29:31 | 44.79021 | 21.20211 | 350° | 4km/h | 25934m | 6.4m/s | -50.2°C | 0.0% | 0hPa | 5.5V | 00:00:00 | 00:00:00 | 00:00:00 | |
| OM5KV | 2026-09-01 18:29:26 | 44.79016 | 21.20217 | 215° | 5km/h | 25902m | 6.3m/s | -50.1°C | 0.0% | 0hPa | 5.5V | 00:00:00 | 00:00:00 | 00:00:00 | |
| OE3JTB-15 | 2026-09-01 18:29:22 | 44.79019 | 21.20204 | 115° | 16km/h | 25878m | 5.7m/s | -49.4°C | 0% | 0hPa | 5.5V | 00:00:00 | 00:00:00 | 00:00:00 | |
| OM5KV | 2026-09-01 18:29:20 | 44.79023 | 21.20194 | 125° | 11km/h | 25867m | 5.7m/s | -50.0°C | 0.0% | 0hPa | 5.5V | 00:00:00 | 00:00:00 | 00:00:00 | |
| OM5KV | 2026-09-01 18:29:19 | 44.79024 | 21.20192 | 174° | 5km/h | 25863m | 5.8m/s | -50.0°C | 0.0% | 0hPa | 5.5V | 00:00:00 | 00:00:00 | 00:00:00 | |
| OM5KV | 2026-09-01 18:29:15 | 44.79027 | 21.20199 | 179° | 15km/h | 25839m | 6.0m/s | -50.0°C | 0.0% | 0hPa | 5.5V | 00:00:00 | 00:00:00 | 00:00:00 | |
| OM5KV | 2026-09-01 18:29:04 | 44.79057 | 21.20170 | 249° | 18km/h | 25777m | 5.3m/s | -50.1°C | 0.0% | 0hPa | 5.5V | 00:00:00 | 00:00:00 | 00:00:00 | |
| OM5KV | 2026-09-01 18:29:02 | 44.79062 | 21.20171 | 146° | 18km/h | 25767m | 6.1m/s | -50.1°C | 0.0% | 0hPa | 5.5V | 00:00:00 | 00:00:00 | 00:00:00 | |
| LZ4TU-5 | 2026-09-01 18:29:01 | 44.79071 | 21.20154 | 125° | 31km/h | 25754m | 5.7m/s | -50.1°C | 0.0% | 0hPa | 5.5V | 00:00:00 | 00:00:00 | 00:00:00 | |
| OM5KV | 2026-09-01 18:28:47 | 44.79103 | 21.20092 | 76° | 20km/h | 25676m | 6.2m/s | -50.0°C | 0.0% | 0hPa | 5.5V | 00:00:00 | 00:00:00 | 00:00:00 | |
| OM5KV | 2026-09-01 18:28:37 | 44.79122 | 21.20082 | 86° | 18km/h | 25615m | 7.4m/s | -50.1°C | 0.0% | 0hPa | 5.5V | 00:00:00 | 00:00:00 | 00:00:00 | |
| OM5KV | 2026-09-01 18:28:36 | 44.79121 | 21.20076 | 70° | 22km/h | 25606m | 6.5m/s | -50.1°C | 0.0% | 0hPa | 5.5V | 00:00:00 | 00:00:00 | 00:00:00 | |
| OM5KV | 2026-09-01 18:28:31 | 44.79122 | 21.20054 | 188° | 16km/h | 25574m | 7.5m/s | -50.0°C | 0.0% | 0hPa | 5.5V | 00:00:00 | 00:00:00 | 00:00:00 | |
| OM5KV | 2026-09-01 18:28:30 | 44.79122 | 21.20056 | 219° | 20km/h | 25565m | 6.3m/s | -50.0°C | 0.0% | 0hPa | 5.5V | 00:00:00 | 00:00:00 | 00:00:00 | |
| OM5KV | 2026-09-01 18:28:26 | 44.79129 | 21.20053 | 127° | 26km/h | 25542m | 6.9m/s | -50.0°C | 0.0% | 0hPa | 5.5V | 00:00:00 | 00:00:00 | 00:00:00 | |
| OM5KV | 2026-09-01 18:28:24 | 44.79133 | 21.20037 | 101° | 24km/h | 25529m | 6.9m/s | -50.1°C | 0.0% | 0hPa | 5.5V | 00:00:00 | 00:00:00 | 00:00:00 | |
| OM5KV | 2026-09-01 18:28:20 | 44.79127 | 21.20011 | 67° | 15km/h | 25504m | 6.1m/s | -50.3°C | 0.0% | 0hPa | 5.5V | 00:00:00 | 00:00:00 | 00:00:00 | |
| OM5KV | 2026-09-01 18:28:17 | 44.79124 | 21.20006 | 306° | 7km/h | 25486m | 6.1m/s | -50.4°C | 0.0% | 0hPa | 5.5V | 00:00:00 | 00:00:00 | 00:00:00 | |
| OM5KV | 2026-09-01 18:28:15 | 44.79123 | 21.20009 | 351° | 7km/h | 25475m | 6.5m/s | -50.4°C | 0.0% | 0hPa | 5.5V | 00:00:00 | 00:00:00 | 00:00:00 | |
| OM5KV | 2026-09-01 18:28:06 | 44.79106 | 21.19977 | 328° | 15km/h | 25416m | 6.6m/s | -50.6°C | 0.0% | 0hPa | 5.5V | 00:00:00 | 00:00:00 | 00:00:00 | |
| OM5KV | 2026-09-01 18:28:01 | 44.79090 | 21.19980 | 45° | 26km/h | 25385m | 8.6m/s | -50.5°C | 0.0% | 0hPa | 5.5V | 00:00:00 | 00:00:00 | 00:00:00 | |
| OM5KV | 2026-09-01 18:27:59 | 44.79080 | 21.19964 | 46° | 33km/h | 25369m | 5.0m/s | -50.5°C | 0.0% | 0hPa | 5.5V | 00:00:00 | 00:00:00 | 00:00:00 | |
| OM5KV | 2026-09-01 18:27:55 | 44.79059 | 21.19954 | 330° | 20km/h | 25344m | 6.9m/s | -50.5°C | 0.0% | 0hPa | 5.5V | 00:00:00 | 00:00:00 | 00:00:00 | |
| OM5KV | 2026-09-01 18:27:50 | 44.79050 | 21.19977 | 345° | 11km/h | 25314m | 5.8m/s | -50.5°C | 0.0% | 0hPa | 5.5V | 00:00:00 | 00:00:00 | 00:00:00 | |
| OM5KV | 2026-09-01 18:27:42 | 44.79024 | 21.19988 | 296° | 33km/h | 25257m | 6.3m/s | -50.6°C | 0.0% | 0hPa | 5.5V | 00:00:00 | 00:00:00 | 00:00:00 | |
| OM5KV | 2026-09-01 18:27:38 | 44.79014 | 21.20011 | 323° | 7km/h | 25233m | 6.3m/s | -50.6°C | 0.0% | 0hPa | 5.5V | 00:00:00 | 00:00:00 | 00:00:00 | |
| OM5KV | 2026-09-01 18:27:36 | 44.79012 | 21.20015 | 309° | 11km/h | 25220m | 5.8m/s | -50.6°C | 0.0% | 0hPa | 5.5V | 00:00:00 | 00:00:00 | 00:00:00 | |
| OM5KV | 2026-09-01 18:27:32 | 44.79005 | 21.20033 | 306° | 29km/h | 25196m | 6.0m/s | -50.6°C | 0.0% | 0hPa | 5.5V | 00:00:00 | 00:00:00 | 00:00:00 | |
| OM5KV | 2026-09-01 18:27:31 | 44.79002 | 21.20041 | 292° | 24km/h | 25190m | 6.7m/s | -50.7°C | 0.0% | 0hPa | 5.5V | 00:00:00 | 00:00:00 | 00:00:00 | |
| OM5KV | 2026-09-01 18:27:25 | 44.78984 | 21.20075 | 335° | 13km/h | 25150m | 6.8m/s | -50.6°C | 0.0% | 0hPa | 5.5V | 00:00:00 | 00:00:00 | 00:00:00 | |
| OM5KV | 2026-09-01 18:27:14 | 44.78957 | 21.20153 | 295° | 24km/h | 25082m | 5.9m/s | -50.8°C | 0.0% | 0hPa | 5.5V | 00:00:00 | 00:00:00 | 00:00:00 | |
| OM5KV | 2026-09-01 18:27:08 | 44.78944 | 21.20175 | 276° | 16km/h | 25045m | 6.2m/s | -50.8°C | 0.0% | 0hPa | 5.5V | 00:00:00 | 00:00:00 | 00:00:00 | |
| OM5KV | 2026-09-01 18:27:03 | 44.78953 | 21.20206 | 249° | 22km/h | 25011m | 6.5m/s | -50.9°C | 0.0% | 0hPa | 5.5V | 00:00:00 | 00:00:00 | 00:00:00 | |
| OM5KV | 2026-09-01 18:27:02 | 44.78953 | 21.20213 | 283° | 20km/h | 25006m | 4.9m/s | -50.9°C | 0.0% | 0hPa | 5.5V | 00:00:00 | 00:00:00 | 00:00:00 | |
| OM5KV | 2026-09-01 18:26:49 | 44.78956 | 21.20253 | 300° | 7km/h | 24925m | 5.5m/s | -50.7°C | 0.0% | 0hPa | 5.5V | 00:00:00 | 00:00:00 | 00:00:00 | |
| OM5KV | 2026-09-01 18:26:43 | 44.78959 | 21.20267 | 278° | 5km/h | 24888m | 7.2m/s | -50.8°C | 0.0% | 0hPa | 5.5V | 00:00:00 | 00:00:00 | 00:00:00 | |
| LZ4TU-5 | 2026-09-01 18:26:35 | 44.78960 | 21.20280 | 261° | 7km/h | 24835m | 5.7m/s | -50.7°C | 0.0% | 0hPa | 5.5V | 00:00:00 | 00:00:00 | 00:00:00 | |
| OM5KV | 2026-09-01 18:26:34 | 44.78960 | 21.20282 | 272° | 7km/h | 24829m | 5.9m/s | -50.7°C | 0.0% | 0hPa | 5.5V | 00:00:00 | 00:00:00 | 00:00:00 | |
| OM5KV | 2026-09-01 18:26:32 | 44.78962 | 21.20288 | 239° | 11km/h | 24815m | 6.6m/s | -50.7°C | 0.0% | 0hPa | 5.5V | 00:00:00 | 00:00:00 | 00:00:00 | |
| LZ4TU-5 | 2026-09-01 18:26:30 | 44.78963 | 21.20293 | 242° | 4km/h | 24802m | 6.5m/s | -50.7°C | 0.0% | 0hPa | 5.5V | 00:00:00 | 00:00:00 | 00:00:00 | |
| OM5KV | 2026-09-01 18:26:28 | 44.78962 | 21.20294 | 7° | 5km/h | 24789m | 6.1m/s | -50.7°C | 0.0% | 0hPa | 5.5V | 00:00:00 | 00:00:00 | 00:00:00 | |
| OM5KV | 2026-09-01 18:26:25 | 44.78967 | 21.20293 | 185° | 16km/h | 24770m | 6.5m/s | -50.7°C | 0.0% | 0hPa | 5.5V | 00:00:00 | 00:00:00 | 00:00:00 | |
| OM5KV | 2026-09-01 18:26:19 | 44.78981 | 21.20324 | 253° | 18km/h | 24730m | 5.5m/s | -50.7°C | 0.0% | 0hPa | 5.5V | 00:00:00 | 00:00:00 | 00:00:00 | |
| OE3JTB-15 | 2026-09-01 18:26:18 | 44.78982 | 21.20329 | 252° | 9km/h | 24724m | 6.4m/s | -50.1°C | 0% | 0hPa | 5.5V | 00:00:00 | 00:00:00 | 00:00:00 | |
| OM5KV | 2026-09-01 18:26:17 | 44.78983 | 21.20334 | 259° | 11km/h | 24716m | 6.9m/s | -50.8°C | 0.0% | 0hPa | 5.5V | 00:00:00 | 00:00:00 | 00:00:00 | |
| OM5KV | 2026-09-01 18:26:14 | 44.78982 | 21.20342 | 217° | 7km/h | 24698m | 7.0m/s | -50.8°C | 0.0% | 0hPa | 5.5V | 00:00:00 | 00:00:00 | 00:00:00 | |
| OM5KV | 2026-09-01 18:26:12 | 44.78988 | 21.20345 | 203° | 15km/h | 24685m | 6.3m/s | -50.8°C | 0.0% | 0hPa | 5.5V | 00:00:00 | 00:00:00 | 00:00:00 | |
| OM5KV | 2026-09-01 18:26:08 | 44.78993 | 21.20348 | 27° | 2km/h | 24660m | 6.7m/s | -50.8°C | 0.0% | 0hPa | 5.5V | 00:00:00 | 00:00:00 | 00:00:00 | |
| OM5KV | 2026-09-01 18:26:06 | 44.78991 | 21.20348 | 322° | 4km/h | 24648m | 5.1m/s | -50.8°C | 0.0% | 0hPa | 5.5V | 00:00:00 | 00:00:00 | 00:00:00 | |
| OM5KV | 2026-09-01 18:26:02 | 44.78984 | 21.20350 | 319° | 11km/h | 24622m | 5.1m/s | -50.9°C | 0.0% | 0hPa | 5.5V | 00:00:00 | 00:00:00 | 00:00:00 | |
| OM5KV | 2026-09-01 18:26:01 | 44.78983 | 21.20353 | 287° | 9km/h | 24617m | 5.6m/s | -50.9°C | 0.0% | 0hPa | 5.5V | 00:00:00 | 00:00:00 | 00:00:00 | |
| OM5KV | 2026-09-01 18:25:55 | 44.78988 | 21.20356 | 61° | 18km/h | 24580m | 7.1m/s | -50.9°C | 0.0% | 0hPa | 5.5V | 00:00:00 | 00:00:00 | 00:00:00 | |
| OM5KV | 2026-09-01 18:25:51 | 44.78978 | 21.20343 | 4° | 7km/h | 24554m | 6.1m/s | -51.0°C | 0.0% | 0hPa | 5.5V | 00:00:00 | 00:00:00 | 00:00:00 | |
| OM5KV | 2026-09-01 18:25:50 | 44.78976 | 21.20343 | 360° | 9km/h | 24547m | 6.6m/s | -51.0°C | 0.0% | 0hPa | 5.5V | 00:00:00 | 00:00:00 | 00:00:00 | |
| OE3JTB-15 | 2026-09-01 18:25:49 | 44.78973 | 21.20342 | 12° | 9km/h | 24541m | 6.6m/s | -50.3°C | 0% | 0hPa | 5.5V | 00:00:00 | 00:00:00 | 00:00:00 | |
| OM5KV | 2026-09-01 18:25:45 | 44.78962 | 21.20336 | 39° | 5km/h | 24514m | 6.6m/s | -51.0°C | 0.0% | 0hPa | 5.5V | 00:00:00 | 00:00:00 | 00:00:00 | |
| OM5KV | 2026-09-01 18:25:44 | 44.78960 | 21.20334 | 66° | 9km/h | 24507m | 7.1m/s | -51.0°C | 0.0% | 0hPa | 5.5V | 00:00:00 | 00:00:00 | 00:00:00 | |
| OM5KV | 2026-09-01 18:25:38 | 44.78949 | 21.20323 | 342° | 13km/h | 24466m | 7.1m/s | -51.1°C | 0.0% | 0hPa | 5.5V | 00:00:00 | 00:00:00 | 00:00:00 | |
| OM5KV | 2026-09-01 18:25:26 | 44.78929 | 21.20336 | 281° | 13km/h | 24388m | 5.9m/s | -51.3°C | 0.0% | 0hPa | 5.5V | 00:00:00 | 00:00:00 | 00:00:00 | |
| OM5KV | 2026-09-01 18:25:22 | 44.78926 | 21.20342 | 145° | 4km/h | 24360m | 6.6m/s | -51.4°C | 0.0% | 0hPa | 5.5V | 00:00:00 | 00:00:00 | 00:00:00 | |
| OE3JTB-15 | 2026-09-01 18:25:20 | 44.78930 | 21.20341 | 182° | 13km/h | 24348m | 5.2m/s | -50.8°C | 0% | 0hPa | 5.5V | 00:00:00 | 00:00:00 | 00:00:00 | |
| LZ4TU-5 | 2026-09-01 18:25:17 | 44.78941 | 21.20344 | 195° | 9km/h | 24332m | 7.6m/s | -51.4°C | 0.0% | 0hPa | 5.5V | 00:00:00 | 00:00:00 | 00:00:00 | |
| OM5KV | 2026-09-01 18:25:15 | 44.78940 | 21.20346 | 330° | 13km/h | 24320m | 6.1m/s | -51.5°C | 0.0% | 0hPa | 5.5V | 00:00:00 | 00:00:00 | 00:00:00 | |
| LZ4TU-5 | 2026-09-01 18:25:13 | 44.78937 | 21.20352 | 275° | 7km/h | 24305m | 6.8m/s | -51.5°C | 0.0% | 0hPa | 5.5V | 00:00:00 | 00:00:00 | 00:00:00 | |
| OM5KV | 2026-09-01 18:25:10 | 44.78940 | 21.20357 | 193° | 7km/h | 24287m | 6.7m/s | -51.6°C | 0.0% | 0hPa | 5.5V | 00:00:00 | 00:00:00 | 00:00:00 | |
| OM5KV | 2026-09-01 18:25:09 | 44.78942 | 21.20357 | 165° | 5km/h | 24281m | 5.8m/s | -51.6°C | 0.0% | 0hPa | 5.5V | 00:00:00 | 00:00:00 | 00:00:00 | |
| LZ4TU-5 | 2026-09-01 18:25:08 | 44.78943 | 21.20356 | 165° | 9km/h | 24275m | 6.2m/s | -51.6°C | 0.0% | 0hPa | 5.5V | 00:00:00 | 00:00:00 | 00:00:00 | |
| OM5KV | 2026-09-01 18:25:05 | 44.78952 | 21.20360 | 237° | 13km/h | 24258m | 5.8m/s | -51.7°C | 0.0% | 0hPa | 5.5V | 00:00:00 | 00:00:00 | 00:00:00 | |
| OM5KV | 2026-09-01 18:25:04 | 44.78954 | 21.20364 | 254° | 9km/h | 24251m | 7.0m/s | -51.8°C | 0.0% | 0hPa | 5.5V | 00:00:00 | 00:00:00 | 00:00:00 | |
| LZ4TU-5 | 2026-09-01 18:25:03 | 44.78953 | 21.20367 | 288° | 11km/h | 24244m | 5.8m/s | -51.8°C | 0.0% | 0hPa | 5.5V | 00:00:00 | 00:00:00 | 00:00:00 | |
| OM5KV | 2026-09-01 18:24:58 | 44.78954 | 21.20401 | 246° | 24km/h | 24215m | 6.2m/s | -51.8°C | 0.0% | 0hPa | 5.5V | 00:00:00 | 00:00:00 | 00:00:00 | |
| OM5KV | 2026-09-01 18:24:57 | 44.78956 | 21.20408 | 242° | 16km/h | 24208m | 6.5m/s | -51.8°C | 0.0% | 0hPa | 5.5V | 00:00:00 | 00:00:00 | 00:00:00 | |
| OM5KV | 2026-09-01 18:24:52 | 44.78969 | 21.20423 | 252° | 22km/h | 24174m | 5.6m/s | -51.9°C | 0.0% | 0hPa | 5.5V | 00:00:00 | 00:00:00 | 00:00:00 | |
| OE3JTB-15 | 2026-09-01 18:24:51 | 44.78971 | 21.20430 | 257° | 11km/h | 24169m | 4.2m/s | -51.3°C | 0% | 0hPa | 5.5V | 00:00:00 | 00:00:00 | 00:00:00 | |
| OM5KV | 2026-09-01 18:24:46 | 44.78976 | 21.20446 | 205° | 5km/h | 24138m | 6.7m/s | -52.0°C | 0.0% | 0hPa | 5.5V | 00:00:00 | 00:00:00 | 00:00:00 | |
| OM5KV | 2026-09-01 18:24:41 | 44.78997 | 21.20461 | 187° | 29km/h | 24104m | 5.8m/s | -52.0°C | 0.0% | 0hPa | 5.5V | 00:00:00 | 00:00:00 | 00:00:00 | |
| OM5KV | 2026-09-01 18:24:36 | 44.79014 | 21.20469 | 0° | 0km/h | 24072m | 7.5m/s | -51.9°C | 0.0% | 0hPa | 5.5V | 00:00:00 | 00:00:00 | 00:00:00 | |
| OM5KV | 2026-09-01 18:24:31 | 44.79019 | 21.20461 | 212° | 13km/h | 24041m | 6.5m/s | -51.9°C | 0.0% | 0hPa | 5.5V | 00:00:00 | 00:00:00 | 00:00:00 | |
| OM5KV | 2026-09-01 18:24:30 | 44.79022 | 21.20464 | 206° | 13km/h | 24035m | 7.0m/s | -51.9°C | 0.0% | 0hPa | 5.5V | 00:00:00 | 00:00:00 | 00:00:00 | |
| OM5KV | 2026-09-01 18:24:25 | 44.79027 | 21.20470 | 307° | 9km/h | 24003m | 5.9m/s | -51.9°C | 0.0% | 0hPa | 5.5V | 00:00:00 | 00:00:00 | 00:00:00 | |
| OE3JTB-15 | 2026-09-01 18:24:20 | 44.79028 | 21.20475 | 263° | 11km/h | 23968m | 6.8m/s | -51.5°C | 0% | 0hPa | 5.5V | 00:00:00 | 00:00:00 | 00:00:00 | |
| OM5KV | 2026-09-01 18:24:19 | 44.79028 | 21.20477 | 257° | 5km/h | 23962m | 4.8m/s | -52.1°C | 0.0% | 0hPa | 5.5V | 00:00:00 | 00:00:00 | 00:00:00 | |
| OM5KV | 2026-09-01 18:24:15 | 44.79028 | 21.20481 | 316° | 11km/h | 23936m | 7.8m/s | -52.1°C | 0.0% | 0hPa | 5.5V | 00:00:00 | 00:00:00 | 00:00:00 | |
| OM5KV | 2026-09-01 18:24:13 | 44.79021 | 21.20490 | 324° | 22km/h | 23923m | 6.7m/s | -52.1°C | 0.0% | 0hPa | 5.5V | 00:00:00 | 00:00:00 | 00:00:00 | |
| OM5KV | 2026-09-01 18:24:09 | 44.79005 | 21.20497 | 352° | 7km/h | 23898m | 7.1m/s | -52.1°C | 0.0% | 0hPa | 5.5V | 00:00:00 | 00:00:00 | 00:00:00 | |
| OM5KV | 2026-09-01 18:24:07 | 44.79004 | 21.20501 | 252° | 11km/h | 23885m | 6.1m/s | -52.1°C | 0.0% | 0hPa | 5.5V | 00:00:00 | 00:00:00 | 00:00:00 | |
| OM5KV | 2026-09-01 18:24:03 | 44.79003 | 21.20511 | 331° | 15km/h | 23861m | 6.4m/s | -52.1°C | 0.0% | 0hPa | 5.5V | 00:00:00 | 00:00:00 | 00:00:00 | |
| OM5KV | 2026-09-01 18:24:01 | 44.78996 | 21.20520 | 311° | 20km/h | 23848m | 6.1m/s | -52.1°C | 0.0% | 0hPa | 5.5V | 00:00:00 | 00:00:00 | 00:00:00 | |
| OM5KV | 2026-09-01 18:23:56 | 44.78990 | 21.20542 | 261° | 13km/h | 23817m | 5.5m/s | -52.1°C | 0.0% | 0hPa | 5.5V | 00:00:00 | 00:00:00 | 00:00:00 | |
| OE3JTB-15 | 2026-09-01 18:23:51 | 44.78993 | 21.20569 | 334° | 9km/h | 23785m | 6.1m/s | -51.5°C | 0% | 0hPa | 5.5V | 00:00:00 | 00:00:00 | 00:00:00 | |
| OM5KV | 2026-09-01 18:23:50 | 44.78992 | 21.20569 | 6° | 4km/h | 23779m | 6.7m/s | -52.2°C | 0.0% | 0hPa | 5.5V | 00:00:00 | 00:00:00 | 00:00:00 | |
| LZ4TU-5 | 2026-09-01 18:23:48 | 44.78991 | 21.20571 | 281° | 5km/h | 23766m | 5.9m/s | -52.2°C | 0.0% | 0hPa | 5.5V | 00:00:00 | 00:00:00 | 00:00:00 | |
| OM5KV | 2026-09-01 18:23:45 | 44.78991 | 21.20577 | 248° | 7km/h | 23746m | 6.1m/s | -52.3°C | 0.0% | 0hPa | 5.5V | 00:00:00 | 00:00:00 | 00:00:00 | |
| LZ4TU-5 | 2026-09-01 18:23:44 | 44.78992 | 21.20580 | 237° | 9km/h | 23740m | 6.0m/s | -52.3°C | 0.0% | 0hPa | 5.5V | 00:00:00 | 00:00:00 | 00:00:00 | |
| OM5KV | 2026-09-01 18:23:39 | 44.79008 | 21.20582 | 78° | 5km/h | 23708m | 6.7m/s | -52.5°C | 0.0% | 0hPa | 5.5V | 00:00:00 | 00:00:00 | 00:00:00 | |
| OM5KV | 2026-09-01 18:23:34 | 44.79002 | 21.20580 | 175° | 7km/h | 23677m | 4.9m/s | -52.7°C | 0.0% | 0hPa | 5.5V | 00:00:00 | 00:00:00 | 00:00:00 | |
| OM5KV | 2026-09-01 18:23:33 | 44.79004 | 21.20580 | 181° | 9km/h | 23669m | 8.1m/s | -52.7°C | 0.0% | 0hPa | 5.5V | 00:00:00 | 00:00:00 | 00:00:00 | |
| OM5KV | 2026-09-01 18:23:28 | 44.79010 | 21.20564 | 113° | 22km/h | 23636m | 6.7m/s | -52.8°C | 0.0% | 0hPa | 5.5V | 00:00:00 | 00:00:00 | 00:00:00 | |
| OM5KV | 2026-09-01 18:23:27 | 44.79012 | 21.20557 | 101° | 22km/h | 23630m | 5.3m/s | -52.8°C | 0.0% | 0hPa | 5.5V | 00:00:00 | 00:00:00 | 00:00:00 | |
| OE3JTB-15 | 2026-09-01 18:23:22 | 44.79003 | 21.20544 | 285° | 16km/h | 23597m | 5.5m/s | -52.4°C | 0% | 0hPa | 5.5V | 00:00:00 | 00:00:00 | 00:00:00 | |
| OM5KV | 2026-09-01 18:23:21 | 44.79003 | 21.20546 | 273° | 7km/h | 23592m | 5.9m/s | -53.1°C | 0.0% | 0hPa | 5.6V | 00:00:00 | 00:00:00 | 00:00:00 | |
| OM5KV | 2026-09-01 18:23:17 | 44.78999 | 21.20536 | 83° | 20km/h | 23568m | 6.1m/s | -53.0°C | 0.0% | 0hPa | 5.6V | 00:00:00 | 00:00:00 | 00:00:00 | |
| OM5KV | 2026-09-01 18:23:15 | 44.78999 | 21.20519 | 94° | 24km/h | 23554m | 6.5m/s | -53.0°C | 0.0% | 0hPa | 5.6V | 00:00:00 | 00:00:00 | 00:00:00 | |
| OM5KV | 2026-09-01 18:23:12 | 44.78996 | 21.20500 | 38° | 13km/h | 23538m | 6.4m/s | -53.0°C | 0.0% | 0hPa | 5.6V | 00:00:00 | 00:00:00 | 00:00:00 | |
| OM5KV | 2026-09-01 18:23:10 | 44.78989 | 21.20504 | 310° | 24km/h | 23522m | 6.9m/s | -52.9°C | 0.0% | 0hPa | 5.6V | 00:00:00 | 00:00:00 | 00:00:00 | |
| OM5KV | 2026-09-01 18:23:06 | 44.78976 | 21.20519 | 46° | 9km/h | 23499m | 6.6m/s | -52.9°C | 0.0% | 0hPa | 5.6V | 00:00:00 | 00:00:00 | 00:00:00 | |
| OM5KV | 2026-09-01 18:23:04 | 44.78976 | 21.20510 | 115° | 18km/h | 23485m | 6.3m/s | -52.9°C | 0.0% | 0hPa | 5.6V | 00:00:00 | 00:00:00 | 00:00:00 | |
| OM5KV | 2026-09-01 18:23:00 | 44.78978 | 21.20492 | 337° | 4km/h | 23459m | 7.5m/s | -52.8°C | 0.0% | 0hPa | 5.6V | 00:00:00 | 00:00:00 | 00:00:00 | |
| OM5KV | 2026-09-01 18:22:58 | 44.78977 | 21.20500 | 264° | 18km/h | 23446m | 5.7m/s | -52.8°C | 0.0% | 0hPa | 5.6V | 00:00:00 | 00:00:00 | 00:00:00 | |
| OE3JTB-15 | 2026-09-01 18:22:53 | 44.78977 | 21.20506 | 101° | 16km/h | 23414m | 7.6m/s | -52.2°C | 0% | 0hPa | 5.6V | 00:00:00 | 00:00:00 | 00:00:00 | |
| OM5KV | 2026-09-01 18:22:49 | 44.78984 | 21.20486 | 71° | 4km/h | 23389m | 6.5m/s | -52.9°C | 0.0% | 0hPa | 5.6V | 00:00:00 | 00:00:00 | 00:00:00 | |
| OM5KV | 2026-09-01 18:22:43 | 44.78987 | 21.20499 | 158° | 7km/h | 23350m | 6.2m/s | -53.0°C | 0.0% | 0hPa | 5.6V | 00:00:00 | 00:00:00 | 00:00:00 | |
| OM5KV | 2026-09-01 18:22:41 | 44.78992 | 21.20495 | 148° | 15km/h | 23338m | 6.7m/s | -53.1°C | 0.0% | 0hPa | 5.6V | 00:00:00 | 00:00:00 | 00:00:00 | |
| OM5KV | 2026-09-01 18:22:35 | 44.79000 | 21.20496 | 0° | 0km/h | 23304m | 5.1m/s | -53.0°C | 0.0% | 0hPa | 5.6V | 00:00:00 | 00:00:00 | 00:00:00 | |
| OM5KV | 2026-09-01 18:22:29 | 44.79021 | 21.20484 | 125° | 16km/h | 23267m | 5.2m/s | -52.8°C | 0.0% | 0hPa | 5.6V | 00:00:00 | 00:00:00 | 00:00:00 | |
| OM5KV | 2026-09-01 18:22:25 | 44.79028 | 21.20473 | 147° | 11km/h | 23243m | 5.2m/s | -52.9°C | 0.0% | 0hPa | 5.6V | 00:00:00 | 00:00:00 | 00:00:00 | |
| OM5KV | 2026-09-01 18:22:24 | 44.79030 | 21.20471 | 126° | 11km/h | 23236m | 7.0m/s | -52.9°C | 0.0% | 0hPa | 5.6V | 00:00:00 | 00:00:00 | 00:00:00 | |
| LZ4TU-5 | 2026-09-01 18:22:22 | 44.79033 | 21.20462 | 110° | 16km/h | 23224m | 4.8m/s | -52.9°C | 0.0% | 0hPa | 5.6V | 00:00:00 | 00:00:00 | 00:00:00 | |
| OM5KV | 2026-09-01 18:22:20 | 44.79038 | 21.20453 | 149° | 18km/h | 23210m | 7.4m/s | -52.9°C | 0.0% | 0hPa | 5.6V | 00:00:00 | 00:00:00 | 00:00:00 | |
| OM5KV | 2026-09-01 18:22:18 | 44.79047 | 21.20447 | 156° | 18km/h | 23198m | 6.5m/s | -53.0°C | 0.0% | 0hPa | 5.6V | 00:00:00 | 00:00:00 | 00:00:00 | |
| LZ4TU-5 | 2026-09-01 18:22:17 | 44.79050 | 21.20444 | 136° | 16km/h | 23191m | 7.2m/s | -53.0°C | 0.0% | 0hPa | 5.6V | 00:00:00 | 00:00:00 | 00:00:00 | |
| OM5KV | 2026-09-01 18:22:14 | 44.79055 | 21.20427 | 101° | 16km/h | 23173m | 7.5m/s | -53.0°C | 0.0% | 0hPa | 5.6V | 00:00:00 | 00:00:00 | 00:00:00 | |
| OM5KV | 2026-09-01 18:22:13 | 44.79055 | 21.20422 | 110° | 11km/h | 23167m | 5.7m/s | -53.0°C | 0.0% | 0hPa | 5.6V | 00:00:00 | 00:00:00 | 00:00:00 | |
| OM5KV | 2026-09-01 18:22:07 | 44.79062 | 21.20397 | 112° | 9km/h | 23128m | 6.7m/s | -53.2°C | 0.0% | 0hPa | 5.6V | 00:00:00 | 00:00:00 | 00:00:00 | |
| OM5KV | 2026-09-01 18:22:03 | 44.79061 | 21.20376 | 82° | 26km/h | 23102m | 4.7m/s | -53.2°C | 66.8% | 0hPa | 5.6V | 00:00:00 | 00:00:00 | 00:00:00 | |
| OM5KV | 2026-09-01 18:22:02 | 44.79060 | 21.20367 | 86° | 24km/h | 23095m | 7.1m/s | -53.2°C | 0.0% | 0hPa | 5.6V | 00:00:00 | 00:00:00 | 00:00:00 | |
| OM5KV | 2026-09-01 18:21:56 | 44.79053 | 21.20338 | 9° | 7km/h | 23058m | 7.7m/s | -53.2°C | 0.0% | 0hPa | 5.6V | 00:00:00 | 00:00:00 | 00:00:00 | |
| OM5KV | 2026-09-01 18:21:52 | 44.79050 | 21.20328 | 80° | 18km/h | 23032m | 6.1m/s | -53.3°C | 0.0% | 0hPa | 5.6V | 00:00:00 | 00:00:00 | 00:00:00 | |
| OM5KV | 2026-09-01 18:21:51 | 44.79050 | 21.20321 | 93° | 22km/h | 23026m | 7.0m/s | -53.3°C | 0.0% | 0hPa | 5.6V | 00:00:00 | 00:00:00 | 00:00:00 | |
| OM5KV | 2026-09-01 18:21:46 | 44.79049 | 21.20281 | 50° | 15km/h | 22995m | 4.8m/s | -53.3°C | 0.0% | 0hPa | 5.6V | 00:00:00 | 00:00:00 | 00:00:00 | |
| OM5KV | 2026-09-01 18:21:45 | 44.79047 | 21.20278 | 37° | 9km/h | 22987m | 7.8m/s | -53.3°C | 0.0% | 0hPa | 5.6V | 00:00:00 | 00:00:00 | 00:00:00 | |
| OM5KV | 2026-09-01 18:21:41 | 44.79042 | 21.20272 | 83° | 18km/h | 22964m | 5.6m/s | -53.2°C | 0.0% | 0hPa | 5.6V | 00:00:00 | 00:00:00 | 00:00:00 | |
| OM5KV | 2026-09-01 18:21:36 | 44.79050 | 21.20223 | 98° | 27km/h | 22933m | 5.6m/s | -53.2°C | 0.0% | 0hPa | 5.6V | 00:00:00 | 00:00:00 | 00:00:00 | |
| OM5KV | 2026-09-01 18:21:33 | 44.79043 | 21.20199 | 42° | 22km/h | 22914m | 5.7m/s | -53.3°C | 0.0% | 0hPa | 5.6V | 00:00:00 | 00:00:00 | 00:00:00 | |
| OM5KV | 2026-09-01 18:21:31 | 44.79037 | 21.20192 | 52° | 7km/h | 22901m | 5.4m/s | -53.5°C | 0.0% | 0hPa | 5.6V | 00:00:00 | 00:00:00 | 00:00:00 | |
| OM5KV | 2026-09-01 18:21:25 | 44.79038 | 21.20169 | 87° | 16km/h | 22864m | 5.8m/s | -53.8°C | 0.0% | 0hPa | 5.6V | 00:00:00 | 00:00:00 | 00:00:00 | |
| OM5KV | 2026-09-01 18:21:19 | 44.79008 | 21.20147 | 328° | 18km/h | 22824m | 6.5m/s | -54.1°C | 0.0% | 0hPa | 5.6V | 00:00:00 | 00:00:00 | 00:00:00 | |
| OM5KV | 2026-09-01 18:21:16 | 44.79001 | 21.20152 | 36° | 9km/h | 22806m | 5.8m/s | -54.1°C | 0.0% | 0hPa | 5.6V | 00:00:00 | 00:00:00 | 00:00:00 | |
| OM5KV | 2026-09-01 18:21:14 | 44.78997 | 21.20145 | 70° | 15km/h | 22792m | 6.9m/s | -54.2°C | 0.0% | 0hPa | 5.6V | 00:00:00 | 00:00:00 | 00:00:00 | |
| OM5KV | 2026-09-01 18:21:08 | 44.78969 | 21.20118 | 352° | 15km/h | 22756m | 6.9m/s | -54.3°C | 0.0% | 0hPa | 5.6V | 00:00:00 | 00:00:00 | 00:00:00 | |
| OM5KV | 2026-09-01 18:21:02 | 44.78977 | 21.20122 | 113° | 11km/h | 22719m | 7.4m/s | -54.2°C | 0.0% | 0hPa | 5.6V | 00:00:00 | 00:00:00 | 00:00:00 | |
| OM5KV | 2026-09-01 18:20:59 | 44.78969 | 21.20112 | 23° | 26km/h | 22702m | 6.7m/s | -54.3°C | 0.0% | 0hPa | 5.6V | 00:00:00 | 00:00:00 | 00:00:00 | |
| LZ4TU-5 | 2026-09-01 18:20:58 | 44.78956 | 21.20104 | 23° | 29km/h | 22690m | 3.9m/s | -54.2°C | 0.0% | 0hPa | 5.6V | 00:00:00 | 00:00:00 | 00:00:00 | |
| OM5KV | 2026-09-01 18:20:57 | 44.78956 | 21.20104 | 23° | 29km/h | 22690m | 3.9m/s | -54.2°C | 0.0% | 0hPa | 5.6V | 00:00:00 | 00:00:00 | 00:00:00 | |
| OM5KV | 2026-09-01 18:20:51 | 44.78949 | 21.20097 | 83° | 16km/h | 22652m | 5.9m/s | -54.4°C | 0.0% | 0hPa | 5.6V | 00:00:00 | 00:00:00 | 00:00:00 | |
| OM5KV | 2026-09-01 18:20:47 | 44.78928 | 21.20063 | 35° | 47km/h | 22626m | 7.6m/s | -54.6°C | 0.0% | 0hPa | 5.6V | 00:00:00 | 00:00:00 | 00:00:00 | |
| OM5KV | 2026-09-01 18:20:41 | 44.78900 | 21.20052 | 186° | 13km/h | 22589m | 6.2m/s | -54.5°C | 0.0% | 0hPa | 5.6V | 00:00:00 | 00:00:00 | 00:00:00 | |
| OM5KV | 2026-09-01 18:20:40 | 44.78902 | 21.20052 | 151° | 5km/h | 22584m | 5.2m/s | -54.4°C | 0.0% | 0hPa | 5.6V | 00:00:00 | 00:00:00 | 00:00:00 | |
| OM5KV | 2026-09-01 18:20:35 | 44.78870 | 21.20033 | 12° | 31km/h | 22554m | 5.0m/s | -54.5°C | 0.0% | 0hPa | 5.6V | 00:00:00 | 00:00:00 | 00:00:00 | |
| OM5KV | 2026-09-01 18:20:34 | 44.78863 | 21.20032 | 1° | 29km/h | 22548m | 6.0m/s | -54.5°C | 0.0% | 0hPa | 5.6V | 00:00:00 | 00:00:00 | 00:00:00 | |
| OM5KV | 2026-09-01 18:20:28 | 44.78847 | 21.20040 | 62° | 7km/h | 22508m | 5.9m/s | -54.4°C | 0.0% | 0hPa | 5.6V | 00:00:00 | 00:00:00 | 00:00:00 | |
| OM5KV | 2026-09-01 18:20:24 | 44.78826 | 21.20040 | 351° | 33km/h | 22484m | 6.4m/s | -54.3°C | 0.0% | 0hPa | 5.6V | 00:00:00 | 00:00:00 | 00:00:00 | |
| OM5KV | 2026-09-01 18:20:23 | 44.78818 | 21.20042 | 351° | 29km/h | 22476m | 8.0m/s | -54.2°C | 0.0% | 0hPa | 5.6V | 00:00:00 | 00:00:00 | 00:00:00 | |
| OM5KV | 2026-09-01 18:20:19 | 44.78803 | 21.20049 | 1° | 7km/h | 22451m | 4.5m/s | -54.1°C | 0.0% | 0hPa | 5.6V | 00:00:00 | 00:00:00 | 00:00:00 | |
| OM5KV | 2026-09-01 18:20:17 | 44.78801 | 21.20047 | 76° | 7km/h | 22437m | 5.1m/s | -54.1°C | 0.0% | 0hPa | 5.6V | 00:00:00 | 00:00:00 | 00:00:00 | |
| OM5KV | 2026-09-01 18:20:11 | 44.78775 | 21.20045 | 353° | 22km/h | 22398m | 5.1m/s | -54.2°C | 0.0% | 0hPa | 5.6V | 00:00:00 | 00:00:00 | 00:00:00 | |
| OM5KV | 2026-09-01 18:20:05 | 44.78765 | 21.20038 | 131° | 5km/h | 22357m | 6.5m/s | -54.4°C | 0.0% | 0hPa | 5.6V | 00:00:00 | 00:00:00 | 00:00:00 | |
| OM5KV | 2026-09-01 18:19:59 | 44.78751 | 21.20030 | 46° | 15km/h | 22319m | 5.8m/s | -54.8°C | 0.0% | 0hPa | 5.6V | 00:00:00 | 00:00:00 | 00:00:00 | |
| OM5KV | 2026-09-01 18:19:54 | 44.78743 | 21.20013 | 94° | 15km/h | 22286m | 7.0m/s | -54.7°C | 0.0% | 0hPa | 5.6V | 00:00:00 | 00:00:00 | 00:00:00 | |
| OM5KV | 2026-09-01 18:19:48 | 44.78728 | 21.19993 | 46° | 20km/h | 22247m | 7.7m/s | -55.0°C | 0.0% | 0hPa | 5.6V | 00:00:00 | 00:00:00 | 00:00:00 | |
| OM5KV | 2026-09-01 18:19:42 | 44.78718 | 21.19963 | 68° | 16km/h | 22209m | 5.2m/s | -55.0°C | 0.0% | 0hPa | 5.6V | 00:00:00 | 00:00:00 | 00:00:00 | |
| OM5KV | 2026-09-01 18:19:39 | 44.78707 | 21.19954 | 3° | 24km/h | 22189m | 5.4m/s | -55.1°C | 0.0% | 0hPa | 5.6V | 00:00:00 | 00:00:00 | 00:00:00 | |
| LZ4TU-5 | 2026-09-01 18:19:38 | 44.78700 | 21.19953 | 4° | 27km/h | 22183m | 6.3m/s | -55.1°C | 0.0% | 0hPa | 5.6V | 00:00:00 | 00:00:00 | 00:00:00 | |
| OM5KV | 2026-09-01 18:19:37 | 44.78693 | 21.19952 | 12° | 29km/h | 22176m | 7.2m/s | -55.0°C | 0.0% | 0hPa | 5.6V | 00:00:00 | 00:00:00 | 00:00:00 | |
| OM5KV | 2026-09-01 18:19:25 | 44.78641 | 21.19931 | 8° | 22km/h | 22103m | 8.7m/s | -54.6°C | 0.0% | 0hPa | 5.6V | 00:00:00 | 00:00:00 | 00:00:00 | |
| OM5KV | 2026-09-01 18:19:19 | 44.78614 | 21.19916 | 28° | 16km/h | 22064m | 7.7m/s | -54.3°C | 0.0% | 0hPa | 5.6V | 00:00:00 | 00:00:00 | 00:00:00 | |
| OM5KV | 2026-09-01 18:19:14 | 44.78596 | 21.19920 | 352° | 20km/h | 22033m | 7.4m/s | -54.1°C | 0.0% | 0hPa | 5.6V | 00:00:00 | 00:00:00 | 00:00:00 | |
| OM5KV | 2026-09-01 18:19:11 | 44.78579 | 21.19916 | 14° | 22km/h | 22016m | 5.7m/s | -54.0°C | 0.0% | 0hPa | 5.6V | 00:00:00 | 00:00:00 | 00:00:00 | |
| OM5KV | 2026-09-01 18:19:07 | 44.78561 | 21.19920 | 342° | 20km/h | 21991m | 6.2m/s | -53.9°C | 0.0% | 0hPa | 5.6V | 00:00:00 | 00:00:00 | 00:00:00 | |
| OM5KV | 2026-09-01 18:19:05 | 44.78553 | 21.19925 | 330° | 13km/h | 21978m | 6.6m/s | -53.8°C | 0.0% | 0hPa | 5.6V | 00:00:00 | 00:00:00 | 00:00:00 | |
| OM5KV | 2026-09-01 18:19:00 | 44.78535 | 21.19921 | 23° | 20km/h | 21949m | 5.0m/s | -53.7°C | 0.0% | 0hPa | 5.6V | 00:00:00 | 00:00:00 | 00:00:00 | |
| OM5KV | 2026-09-01 18:18:54 | 44.78519 | 21.19927 | 339° | 13km/h | 21913m | 5.1m/s | -53.6°C | 0.0% | 0hPa | 5.6V | 00:00:00 | 00:00:00 | 00:00:00 | |
| OM5KV | 2026-09-01 18:18:49 | 44.78497 | 21.19935 | 351° | 27km/h | 21881m | 5.6m/s | -54.0°C | 0.0% | 0hPa | 5.6V | 00:00:00 | 00:00:00 | 00:00:00 | |
| OM5KV | 2026-09-01 18:18:32 | 44.78415 | 21.20003 | 318° | 29km/h | 21778m | 5.1m/s | -53.8°C | 0.0% | 0hPa | 5.6V | 00:00:00 | 00:00:00 | 00:00:00 | |
| OM5KV | 2026-09-01 18:18:27 | 44.78380 | 21.20026 | 349° | 33km/h | 21748m | 6.4m/s | -53.8°C | 0.0% | 0hPa | 5.6V | 00:00:00 | 00:00:00 | 00:00:00 | |
| LZ4TU-5 | 2026-09-01 18:18:23 | 44.78355 | 21.20043 | 291° | 20km/h | 21724m | 6.2m/s | -53.8°C | 0.0% | 0hPa | 5.6V | 00:00:00 | 00:00:00 | 00:00:00 | |
| OM5KV | 2026-09-01 18:18:21 | 44.78353 | 21.20061 | 284° | 29km/h | 21712m | 8.0m/s | -53.8°C | 0.0% | 0hPa | 5.6V | 00:00:00 | 00:00:00 | 00:00:00 | |
| LZ4TU-5 | 2026-09-01 18:18:18 | 44.78337 | 21.20087 | 330° | 33km/h | 21693m | 8.9m/s | -53.8°C | 0.0% | 0hPa | 5.6V | 00:00:00 | 00:00:00 | 00:00:00 | |
| OM5KV | 2026-09-01 18:18:16 | 44.78323 | 21.20093 | 347° | 29km/h | 21679m | 6.5m/s | -53.9°C | 0.0% | 0hPa | 5.6V | 00:00:00 | 00:00:00 | 00:00:00 | |
| OM5KV | 2026-09-01 18:18:14 | 44.78311 | 21.20102 | 318° | 26km/h | 21668m | 4.6m/s | -54.0°C | 0.0% | 0hPa | 5.6V | 00:00:00 | 00:00:00 | 00:00:00 | |
| LZ4TU-5 | 2026-09-01 18:18:13 | 44.78307 | 21.20108 | 302° | 22km/h | 21661m | 7.3m/s | -53.9°C | 0.0% | 0hPa | 5.6V | 00:00:00 | 00:00:00 | 00:00:00 | |
| OM5KV | 2026-09-01 18:18:10 | 44.78302 | 21.20134 | 288° | 33km/h | 21642m | 6.8m/s | -53.9°C | 0.0% | 0hPa | 5.6V | 00:00:00 | 00:00:00 | 00:00:00 | |
| LZ4TU-5 | 2026-09-01 18:18:08 | 44.78294 | 21.20154 | 311° | 31km/h | 21630m | 6.9m/s | -53.8°C | 0.0% | 0hPa | 5.6V | 00:00:00 | 00:00:00 | 00:00:00 | |
| OM5KV | 2026-09-01 18:18:04 | 44.78272 | 21.20168 | 341° | 24km/h | 21606m | 6.4m/s | -53.8°C | 0.0% | 0hPa | 5.6V | 00:00:00 | 00:00:00 | 00:00:00 | |
| OM5KV | 2026-09-01 18:17:59 | 44.78260 | 21.20216 | 263° | 37km/h | 21573m | 5.8m/s | -53.7°C | 0.0% | 0hPa | 5.6V | 00:00:00 | 00:00:00 | 00:00:00 | |
| OM5KV | 2026-09-01 18:17:53 | 44.78245 | 21.20269 | 315° | 24km/h | 21537m | 5.9m/s | -53.8°C | 0.0% | 0hPa | 5.6V | 00:00:00 | 00:00:00 | 00:00:00 | |
| OM5KV | 2026-09-01 18:17:49 | 44.78236 | 21.20309 | 259° | 37km/h | 21513m | 6.9m/s | -53.8°C | 0.0% | 0hPa | 5.6V | 00:00:00 | 00:00:00 | 00:00:00 | |
| OM5KV | 2026-09-01 18:17:48 | 44.78239 | 21.20322 | 250° | 38km/h | 21508m | 5.4m/s | -53.8°C | 0.0% | 0hPa | 5.6V | 00:00:00 | 00:00:00 | 00:00:00 | |
| OM5KV | 2026-09-01 18:17:44 | 44.78243 | 21.20370 | 289° | 26km/h | 21484m | 6.8m/s | -53.9°C | 0.0% | 0hPa | 5.6V | 00:00:00 | 00:00:00 | 00:00:00 | |
| OM5KV | 2026-09-01 18:17:43 | 44.78241 | 21.20378 | 300° | 20km/h | 21478m | 6.2m/s | -53.9°C | 0.0% | 0hPa | 5.6V | 00:00:00 | 00:00:00 | 00:00:00 | |
| OM5KV | 2026-09-01 18:17:38 | 44.78228 | 21.20406 | 281° | 22km/h | 21450m | 6.0m/s | -53.9°C | 0.0% | 0hPa | 5.6V | 00:00:00 | 00:00:00 | 00:00:00 | |
| OM5KV | 2026-09-01 18:17:37 | 44.78227 | 21.20414 | 264° | 22km/h | 21444m | 6.3m/s | -53.9°C | 0.0% | 0hPa | 5.6V | 00:00:00 | 00:00:00 | 00:00:00 | |
| OM5KV | 2026-09-01 18:17:32 | 44.78235 | 21.20470 | 266° | 29km/h | 21413m | 6.8m/s | -53.8°C | 0.0% | 0hPa | 5.6V | 00:00:00 | 00:00:00 | 00:00:00 | |
| OM5KV | 2026-09-01 18:17:31 | 44.78235 | 21.20480 | 273° | 24km/h | 21407m | 5.2m/s | -53.8°C | 0.0% | 0hPa | 5.6V | 00:00:00 | 00:00:00 | 00:00:00 | |
| OM5KV | 2026-09-01 18:17:27 | 44.78235 | 21.20515 | 262° | 27km/h | 21384m | 5.9m/s | -53.7°C | 0.0% | 0hPa | 5.6V | 00:00:00 | 00:00:00 | 00:00:00 | |
| OM5KV | 2026-09-01 18:17:25 | 44.78238 | 21.20532 | 250° | 24km/h | 21371m | 5.3m/s | -53.6°C | 0.0% | 0hPa | 5.6V | 00:00:00 | 00:00:00 | 00:00:00 | |
| OM5KV | 2026-09-01 18:17:20 | 44.78245 | 21.20584 | 276° | 27km/h | 21341m | 7.1m/s | -53.5°C | 0.0% | 0hPa | 5.6V | 00:00:00 | 00:00:00 | 00:00:00 | |
| OM5KV | 2026-09-01 18:17:15 | 44.78244 | 21.20622 | 252° | 26km/h | 21312m | 5.9m/s | -53.4°C | 0.0% | 0hPa | 5.6V | 00:00:00 | 00:00:00 | 00:00:00 | |
| OM5KV | 2026-09-01 18:17:10 | 44.78254 | 21.20670 | 255° | 27km/h | 21283m | 3.8m/s | -53.2°C | 0.0% | 0hPa | 5.6V | 00:00:00 | 00:00:00 | 00:00:00 | |
| OM5KV | 2026-09-01 18:17:04 | 44.78260 | 21.20695 | 230° | 16km/h | 21245m | 4.6m/s | -53.2°C | 0.0% | 0hPa | 5.6V | 00:00:00 | 00:00:00 | 00:00:00 | |
| OM5KV | 2026-09-01 18:17:03 | 44.78262 | 21.20700 | 242° | 18km/h | 21240m | 6.2m/s | -53.3°C | 0.0% | 0hPa | 5.6V | 00:00:00 | 00:00:00 | 00:00:00 | |
| OM5KV | 2026-09-01 18:16:57 | 44.78265 | 21.20748 | 249° | 22km/h | 21204m | 5.5m/s | -53.7°C | 0.0% | 0hPa | 5.6V | 00:00:00 | 00:00:00 | 00:00:00 | |
| OM5KV | 2026-09-01 18:16:46 | 44.78283 | 21.20773 | 240° | 16km/h | 21140m | 6.7m/s | -53.8°C | 0.0% | 0hPa | 5.6V | 00:00:00 | 00:00:00 | 00:00:00 | |
| LZ4TU-5 | 2026-09-01 18:16:43 | 44.78294 | 21.20788 | 226° | 24km/h | 21122m | 6.2m/s | -53.8°C | 0.0% | 0hPa | 5.6V | 00:00:00 | 00:00:00 | 00:00:00 | |
| OM5KV | 2026-09-01 18:16:39 | 44.78312 | 21.20802 | 163° | 15km/h | 21098m | 4.8m/s | -53.8°C | 0.0% | 0hPa | 5.6V | 00:00:00 | 00:00:00 | 00:00:00 | |
| OM5KV | 2026-09-01 18:16:29 | 44.78334 | 21.20822 | 189° | 16km/h | 21038m | 6.8m/s | -54.4°C | 0.0% | 0hPa | 5.6V | 00:00:00 | 00:00:00 | 00:00:00 | |
| OM5KV | 2026-09-01 18:16:28 | 44.78338 | 21.20822 | 162° | 15km/h | 21031m | 6.6m/s | -54.5°C | 0.0% | 0hPa | 5.6V | 00:00:00 | 00:00:00 | 00:00:00 | |
| OM5KV | 2026-09-01 18:16:24 | 44.78347 | 21.20815 | 194° | 11km/h | 21007m | 5.6m/s | -54.7°C | 0.0% | 0hPa | 5.6V | 00:00:00 | 00:00:00 | 00:00:00 | |
| OE3JTB-15 | 2026-09-01 18:16:23 | 44.78350 | 21.20816 | 198° | 22km/h | 21000m | 6.3m/s | -53.9°C | 0% | 0hPa | 5.6V | 00:00:00 | 00:00:00 | 00:00:00 | |
| OM5KV | 2026-09-01 18:16:22 | 44.78354 | 21.20817 | 182° | 18km/h | 20994m | 6.6m/s | -54.7°C | 0.0% | 0hPa | 5.6V | 00:00:00 | 00:00:00 | 00:00:00 | |
| OM5KV | 2026-09-01 18:16:19 | 44.78369 | 21.20814 | 176° | 18km/h | 20976m | 6.8m/s | -54.8°C | 0.0% | 0hPa | 5.6V | 00:00:00 | 00:00:00 | 00:00:00 | |
| OM5KV | 2026-09-01 18:16:16 | 44.78379 | 21.20814 | 157° | 7km/h | 20957m | 7.1m/s | -54.8°C | 0.0% | 0hPa | 5.6V | 00:00:00 | 00:00:00 | 00:00:00 | |
| OM5KV | 2026-09-01 18:16:13 | 44.78384 | 21.20806 | 155° | 11km/h | 20940m | 6.2m/s | -54.9°C | 0.0% | 0hPa | 5.6V | 00:00:00 | 00:00:00 | 00:00:00 | |
| OM5KV | 2026-09-01 18:15:58 | 44.78430 | 21.20814 | 199° | 16km/h | 20850m | 5.6m/s | -54.8°C | 0.0% | 0hPa | 5.6V | 00:00:00 | 00:00:00 | 00:00:00 | |
| OM5KV | 2026-09-01 18:15:51 | 44.78445 | 21.20841 | 219° | 16km/h | 20809m | 6.8m/s | -54.7°C | 0.0% | 0hPa | 5.6V | 00:00:00 | 00:00:00 | 00:00:00 | |
| OM5KV | 2026-09-01 18:15:47 | 44.78465 | 21.20839 | 155° | 16km/h | 20786m | 4.3m/s | -54.5°C | 0.0% | 0hPa | 5.6V | 00:00:00 | 00:00:00 | 00:00:00 | |
| OM5KV | 2026-09-01 18:15:45 | 44.78472 | 21.20837 | 197° | 13km/h | 20775m | 6.1m/s | -54.5°C | 0.0% | 0hPa | 5.6V | 00:00:00 | 00:00:00 | 00:00:00 | |
| OM5KV | 2026-09-01 18:15:34 | 44.78512 | 21.20850 | 171° | 18km/h | 20707m | 6.3m/s | -54.7°C | 0.0% | 0hPa | 5.6V | 00:00:00 | 00:00:00 | 00:00:00 | |
| OM5KV | 2026-09-01 18:15:26 | 44.78552 | 21.20853 | 156° | 20km/h | 20661m | 6.4m/s | -54.6°C | 0.0% | 0hPa | 5.6V | 00:00:00 | 00:00:00 | 00:00:00 | |
| LZ4TU-5 | 2026-09-01 18:15:24 | 44.78559 | 21.20844 | 127° | 18km/h | 20649m | 5.3m/s | -54.7°C | 0.0% | 0hPa | 5.6V | 00:00:00 | 00:00:00 | 00:00:00 | |
| OM5KV | 2026-09-01 18:15:23 | 44.78563 | 21.20838 | 137° | 20km/h | 20643m | 6.1m/s | -54.7°C | 0.0% | 0hPa | 5.6V | 00:00:00 | 00:00:00 | 00:00:00 | |
| OM5KV | 2026-09-01 18:15:21 | 44.78572 | 21.20833 | 177° | 22km/h | 20632m | 5.9m/s | -54.7°C | 0.0% | 0hPa | 5.6V | 00:00:00 | 00:00:00 | 00:00:00 | |
| OM5KV | 2026-09-01 18:15:17 | 44.78591 | 21.20841 | 193° | 22km/h | 20608m | 6.1m/s | -54.8°C | 0.0% | 0hPa | 5.6V | 00:00:00 | 00:00:00 | 00:00:00 | |
| OM5KV | 2026-09-01 18:15:15 | 44.78603 | 21.20838 | 152° | 26km/h | 20598m | 5.6m/s | -54.8°C | 0.0% | 0hPa | 5.6V | 00:00:00 | 00:00:00 | 00:00:00 | |
| OM5KV | 2026-09-01 18:15:12 | 44.78614 | 21.20816 | 114° | 26km/h | 20580m | 4.6m/s | -54.8°C | 0.0% | 0hPa | 5.6V | 00:00:00 | 00:00:00 | 00:00:00 | |
| OM5KV | 2026-09-01 18:15:10 | 44.78621 | 21.20803 | 149° | 26km/h | 20568m | 6.2m/s | -54.8°C | 0.0% | 0hPa | 5.6V | 00:00:00 | 00:00:00 | 00:00:00 | |
| OM5KV | 2026-09-01 18:15:06 | 44.78646 | 21.20799 | 187° | 29km/h | 20544m | 6.2m/s | -54.8°C | 0.0% | 0hPa | 5.6V | 00:00:00 | 00:00:00 | 00:00:00 | |
| OM5KV | 2026-09-01 18:14:57 | 44.78696 | 21.20759 | 154° | 29km/h | 20492m | 6.3m/s | -54.8°C | 0.0% | 0hPa | 5.6V | 00:00:00 | 00:00:00 | 00:00:00 | |
| OM5KV | 2026-09-01 18:14:55 | 44.78710 | 21.20754 | 171° | 29km/h | 20481m | 5.6m/s | -54.9°C | 0.0% | 0hPa | 5.6V | 00:00:00 | 00:00:00 | 00:00:00 | |
| OM5KV | 2026-09-01 18:14:52 | 44.78734 | 21.20746 | 162° | 33km/h | 20465m | 5.6m/s | -55.1°C | 0.0% | 0hPa | 5.6V | 00:00:00 | 00:00:00 | 00:00:00 | |
| OM5KV | 2026-09-01 18:14:50 | 44.78746 | 21.20737 | 134° | 26km/h | 20453m | 5.7m/s | -55.2°C | 0.0% | 0hPa | 5.6V | 00:00:00 | 00:00:00 | 00:00:00 | |
| OM5KV | 2026-09-01 18:14:46 | 44.78768 | 21.20703 | 139° | 35km/h | 20429m | 6.5m/s | -55.2°C | 0.0% | 0hPa | 5.6V | 00:00:00 | 00:00:00 | 00:00:00 | |
| OM5KV | 2026-09-01 18:14:44 | 44.78781 | 21.20689 | 148° | 29km/h | 20418m | 5.4m/s | -55.2°C | 0.0% | 0hPa | 5.6V | 00:00:00 | 00:00:00 | 00:00:00 | |
| OM5KV | 2026-09-01 18:14:41 | 44.78801 | 21.20669 | 139° | 35km/h | 20401m | 6.0m/s | -55.2°C | 0.0% | 0hPa | 5.6V | 00:00:00 | 00:00:00 | 00:00:00 | |
| OM5KV | 2026-09-01 18:14:35 | 44.78830 | 21.20622 | 124° | 24km/h | 20367m | 6.5m/s | -55.1°C | 0.0% | 0hPa | 5.6V | 00:00:00 | 00:00:00 | 00:00:00 | |
| OM5KV | 2026-09-01 18:14:13 | 44.78872 | 21.20452 | 74° | 24km/h | 20243m | 5.1m/s | -55.1°C | 0.0% | 0hPa | 5.6V | 00:00:00 | 00:00:00 | 00:00:00 | |
| LZ4TU-5 | 2026-09-01 18:14:10 | 44.78869 | 21.20430 | 81° | 18km/h | 20225m | 6.7m/s | -55.1°C | 0.0% | 0hPa | 5.6V | 00:00:00 | 00:00:00 | 00:00:00 | |
| OM5KV | 2026-09-01 18:14:07 | 44.78868 | 21.20410 | 105° | 20km/h | 20208m | 6.5m/s | -55.2°C | 0.0% | 0hPa | 5.6V | 00:00:00 | 00:00:00 | 00:00:00 | |
| OE3JTB-15 | 2026-09-01 18:14:05 | 44.78871 | 21.20394 | 104° | 15km/h | 20198m | 5.1m/s | -54.4°C | 0% | 0hPa | 5.6V | 00:00:00 | 00:00:00 | 00:00:00 | |
| OM5KV | 2026-09-01 18:14:01 | 44.78874 | 21.20370 | 102° | 15km/h | 20175m | 6.6m/s | -55.1°C | 0.0% | 0hPa | 5.6V | 00:00:00 | 00:00:00 | 00:00:00 | |
| OE3JTB-15 | 2026-09-01 18:13:36 | 44.78925 | 21.20282 | 100° | 16km/h | 20030m | 5.5m/s | -55.1°C | 0% | 0hPa | 5.6V | 00:00:00 | 00:00:00 | 00:00:00 | |
| OE3JTB-15 | 2026-09-01 18:13:07 | 44.78975 | 21.20132 | 132° | 16km/h | 19861m | 7.4m/s | -55.4°C | 0% | 0hPa | 5.6V | 00:00:00 | 00:00:00 | 00:00:00 | |
| LZ4TU-5 | 2026-09-01 18:12:52 | 44.79014 | 21.20074 | 113° | 22km/h | 19771m | 6.2m/s | -56.2°C | 0.0% | 0hPa | 5.6V | 00:00:00 | 00:00:00 | 00:00:00 | |
| LZ4TU-5 | 2026-09-01 18:12:48 | 44.79023 | 21.20052 | 116° | 11km/h | 19747m | 5.8m/s | -56.1°C | 0.0% | 0hPa | 5.6V | 00:00:00 | 00:00:00 | 00:00:00 | |
| OE3JTB-15 | 2026-09-01 18:12:37 | 44.79036 | 21.20000 | 95° | 20km/h | 19685m | 5.2m/s | -54.8°C | 0% | 0hPa | 5.6V | 00:00:00 | 00:00:00 | 00:00:00 | |
| OE3JTB-15 | 2026-09-01 18:12:08 | 44.79008 | 21.19790 | 61° | 31km/h | 19519m | 5.3m/s | -55.4°C | 0% | 0hPa | 5.6V | 00:00:00 | 00:00:00 | 00:00:00 | |
| LZ4TU-5 | 2026-09-01 18:11:40 | 44.78879 | 21.19529 | 66° | 29km/h | 19356m | 6.2m/s | -56.2°C | 0.0% | 0hPa | 5.6V | 00:00:00 | 00:00:00 | 00:00:00 | |
| OE3JTB-15 | 2026-09-01 18:11:39 | 44.78879 | 21.19529 | 66° | 35km/h | 19356m | 6.1m/s | -55.4°C | 0% | 0hPa | 5.6V | 00:00:00 | 00:00:00 | 00:00:00 | |
| OE3JTB-15 | 2026-09-01 18:11:10 | 44.78798 | 21.19206 | 52° | 31km/h | 19193m | 4.6m/s | -57.0°C | 0% | 0hPa | 5.6V | 00:00:00 | 00:00:00 | 00:00:00 | |
| OE3JTB-15 | 2026-09-01 18:10:41 | 44.78676 | 21.18978 | 35° | 16km/h | 19030m | 5.8m/s | -57.2°C | 0% | 0hPa | 5.7V | 00:00:00 | 00:00:00 | 00:00:00 | |
| OE3JTB-15 | 2026-09-01 18:10:12 | 44.78663 | 21.18836 | 134° | 31km/h | 18860m | 5.7m/s | -57.0°C | 0% | 0hPa | 5.7V | 00:00:00 | 00:00:00 | 00:00:00 | |
| LZ4TU-5 | 2026-09-01 18:09:59 | 44.78688 | 21.18757 | 121° | 26km/h | 18781m | 6.1m/s | -58.5°C | 0.0% | 0hPa | 5.7V | 00:00:00 | 00:00:00 | 00:00:00 | |
| LZ4TU-5 | 2026-09-01 18:09:54 | 44.78697 | 21.18695 | 102° | 42km/h | 18752m | 4.3m/s | -58.5°C | 0.0% | 0hPa | 5.7V | 00:00:00 | 00:00:00 | 00:00:00 | |
| OE3JTB-15 | 2026-09-01 18:09:43 | 44.78728 | 21.18546 | 105° | 46km/h | 18691m | 3.7m/s | -57.5°C | 0% | 0hPa | 5.7V | 00:00:00 | 00:00:00 | 00:00:00 | |
| OE3JTB-15 | 2026-09-01 18:09:14 | 44.78742 | 21.18077 | 82° | 49km/h | 18519m | 5.4m/s | -58.0°C | 0% | 0hPa | 5.7V | 00:00:00 | 00:00:00 | 00:00:00 | |
| OE3JTB-15 | 2026-09-01 18:08:45 | 44.78671 | 21.17590 | 75° | 40km/h | 18351m | 6.3m/s | -57.2°C | 0% | 0hPa | 5.7V | 00:00:00 | 00:00:00 | 00:00:00 | |
| LZ4TU-5 | 2026-09-01 18:08:39 | 44.78651 | 21.17499 | 61° | 44km/h | 18318m | 5.8m/s | -58.1°C | 0.4% | 0hPa | 5.7V | 00:00:00 | 00:00:00 | 00:00:00 | |
| LZ4TU-5 | 2026-09-01 18:08:34 | 44.78626 | 21.17431 | 70° | 47km/h | 18290m | 6.7m/s | -58.1°C | 0.5% | 0hPa | 5.7V | 00:00:00 | 00:00:00 | 00:00:00 | |
| OE3JTB-15 | 2026-09-01 18:08:08 | 44.78508 | 21.17080 | 66° | 38km/h | 18140m | 4.6m/s | -56.5°C | 0% | 0hPa | 5.7V | 00:00:00 | 00:00:00 | 00:00:00 | |
| LZ4TU-5 | 2026-09-01 18:07:19 | 44.78414 | 21.16409 | 90° | 49km/h | 17872m | 4.6m/s | -57.3°C | 0.9% | 0hPa | 0V | 00:00:00 | 00:00:00 | 00:00:00 | |
| LZ4TU-5 | 2026-09-01 18:07:14 | 44.78410 | 21.16328 | 92° | 47km/h | 17845m | 5.9m/s | -57.3°C | 1.0% | 0hPa | 0V | 00:00:00 | 00:00:00 | 00:00:00 | |
| LZ4TU-5 | 2026-09-01 18:06:00 | 44.78325 | 21.15251 | 75° | 49km/h | 17450m | 5.1m/s | -57.5°C | 1.4% | 0hPa | 0V | 00:00:00 | 00:00:00 | 00:00:00 | |
| LZ4TU-5 | 2026-09-01 18:05:55 | 44.78293 | 21.15173 | 64° | 42km/h | 17423m | 4.7m/s | -57.4°C | 1.3% | 0hPa | 0V | 00:00:00 | 00:00:00 | 00:00:00 | |
| LZ4TU-5 | 2026-09-01 18:04:39 | 44.77949 | 21.13964 | 47° | 66km/h | 17006m | 5.8m/s | -59.3°C | 2.0% | 0hPa | 0V | 00:00:00 | 00:00:00 | 00:00:00 | |
| LZ4TU-5 | 2026-09-01 18:04:35 | 44.77901 | 21.13902 | 46° | 58km/h | 16984m | 5.0m/s | -59.3°C | 2.0% | 0hPa | 0V | 00:00:00 | 00:00:00 | 00:00:00 | |
| LZ4TU-5 | 2026-09-01 18:03:16 | 44.77695 | 21.12734 | 108° | 66km/h | 16467m | 5.8m/s | -59.7°C | 3.0% | 0hPa | 0V | 00:00:00 | 00:00:00 | 00:00:00 | |
| LZ4TU-5 | 2026-09-01 18:02:01 | 44.77858 | 21.10964 | 90° | 66km/h | 16061m | 4.3m/s | -60.1°C | 3.0% | 0hPa | 0V | 00:00:00 | 00:00:00 | 00:00:00 | |
| LZ4TU-5 | 2026-09-01 18:01:57 | 44.77855 | 21.10882 | 85° | 53km/h | 16042m | 5.2m/s | -60.0°C | 3.0% | 0hPa | 0V | 00:00:00 | 00:00:00 | 00:00:00 | |
| LZ4TU-5 | 2026-09-01 18:00:33 | 44.77818 | 21.08879 | 79° | 75km/h | 15592m | 5.7m/s | -60.1°C | 3.7% | 0hPa | 0V | 00:00:00 | 00:00:00 | 00:00:00 | |
| LZ4TU-5 | 2026-09-01 18:00:29 | 44.77806 | 21.08778 | 85° | 66km/h | 15572m | 4.9m/s | -60.0°C | 3.7% | 0hPa | 0V | 00:00:00 | 00:00:00 | 00:00:00 | |
| LZ4TU-5 | 2026-09-01 17:59:14 | 44.77713 | 21.06914 | 85° | 80km/h | 15177m | 5.0m/s | -58.5°C | 4.2% | 0hPa | 0V | 00:00:00 | 00:00:00 | 00:00:00 | |
| LZ4TU-5 | 2026-09-01 17:59:09 | 44.77706 | 21.06784 | 93° | 71km/h | 15149m | 6.2m/s | -58.3°C | 4.3% | 0hPa | 0V | 00:00:00 | 00:00:00 | 00:00:00 | |
| LZ4TU-5 | 2026-09-01 17:57:40 | 44.77553 | 21.04360 | 85° | 91km/h | 14691m | 4.9m/s | -58.0°C | 6.1% | 0hPa | 0V | 00:00:00 | 00:00:00 | 00:00:00 | |
| LZ4TU-5 | 2026-09-01 17:57:35 | 44.77546 | 21.04220 | 81° | 69km/h | 14665m | 4.1m/s | -57.9°C | 6.2% | 0hPa | 0V | 00:00:00 | 00:00:00 | 00:00:00 | |
| LZ4TU-5 | 2026-09-01 17:56:22 | 44.77418 | 21.02077 | 89° | 93km/h | 14292m | 5.2m/s | -58.3°C | 8.3% | 0hPa | 0V | 00:00:00 | 00:00:00 | 00:00:00 | |
| LZ4TU-5 | 2026-09-01 17:56:18 | 44.77415 | 21.01949 | 88° | 84km/h | 14272m | 5.2m/s | -58.4°C | 8.6% | 0hPa | 0V | 00:00:00 | 00:00:00 | 00:00:00 | |
| LZ4TU-5 | 2026-09-01 17:55:04 | 44.77360 | 20.99575 | 89° | 100km/h | 13905m | 4.7m/s | -58.5°C | 14.7% | 0hPa | 0V | 00:00:00 | 00:00:00 | 00:00:00 | |
| LZ4TU-5 | 2026-09-01 17:54:59 | 44.77356 | 20.99397 | 94° | 93km/h | 13878m | 5.8m/s | -58.4°C | 15.0% | 0hPa | 0V | 00:00:00 | 00:00:00 | 00:00:00 | |
| LZ4TU-5 | 2026-09-01 17:53:44 | 44.77452 | 20.96523 | 89° | 111km/h | 13487m | 4.7m/s | -59.6°C | 18.3% | 0hPa | 0V | 00:00:00 | 00:00:00 | 00:00:00 | |
| LZ4TU-5 | 2026-09-01 17:53:39 | 44.77452 | 20.96322 | 92° | 110km/h | 13461m | 5.4m/s | -59.6°C | 18.5% | 0hPa | 0V | 00:00:00 | 00:00:00 | 00:00:00 | |
| LZ4TU-5 | 2026-09-01 17:52:23 | 44.77456 | 20.92825 | 85° | 151km/h | 12998m | 3.1m/s | -58.8°C | 20.2% | 0hPa | 0V | 00:00:00 | 00:00:00 | 00:00:00 | |
| LZ4TU-5 | 2026-09-01 17:52:18 | 44.77451 | 20.92595 | 93° | 120km/h | 12966m | 5.8m/s | -58.7°C | 20.0% | 0hPa | 0V | 00:00:00 | 00:00:00 | 00:00:00 | |
| LZ4TU-5 | 2026-09-01 17:51:05 | 44.77264 | 20.88977 | 89° | 120km/h | 12549m | 7.3m/s | -56.9°C | 19.5% | 0hPa | 0V | 00:00:00 | 00:00:00 | 00:00:00 | |
| LZ4TU-5 | 2026-09-01 17:51:01 | 44.77237 | 20.88792 | 74° | 157km/h | 12527m | 5.4m/s | -56.7°C | 19.6% | 0hPa | 0V | 00:00:00 | 00:00:00 | 00:00:00 | |
| LZ4TU-5 | 2026-09-01 17:50:56 | 44.77197 | 20.88548 | 86° | 120km/h | 12493m | 10.2m/s | -56.4°C | 89.7% | 0hPa | 0V | 00:00:00 | 00:00:00 | 00:00:00 | |
| LZ4TU-5 | 2026-09-01 17:50:51 | 44.77177 | 20.88303 | 83° | 148km/h | 12452m | 4.8m/s | -56.3°C | 19.7% | 0hPa | 0V | 00:00:00 | 00:00:00 | 00:00:00 | |
| LZ4TU-5 | 2026-09-01 17:49:35 | 44.76873 | 20.84707 | 84° | 135km/h | 12055m | 5.8m/s | -53.7°C | 19.1% | 0hPa | 0V | 00:00:00 | 00:00:00 | 00:00:00 | |
| LZ4TU-5 | 2026-09-01 17:49:30 | 44.76844 | 20.84474 | 79° | 128km/h | 12030m | 5.7m/s | -53.6°C | 19.2% | 0hPa | 0V | 00:00:00 | 00:00:00 | 00:00:00 | |
| LZ4TU-5 | 2026-09-01 17:48:17 | 44.76508 | 20.81211 | 77° | 131km/h | 11634m | 6.1m/s | -51.4°C | 21.7% | 0hPa | 0V | 00:00:00 | 00:00:00 | 00:00:00 | |
| LZ4TU-5 | 2026-09-01 17:48:13 | 44.76479 | 20.81027 | 83° | 128km/h | 11613m | 5.6m/s | -51.3°C | 21.7% | 0hPa | 0V | 00:00:00 | 00:00:00 | 00:00:00 | |
| LZ4TU-5 | 2026-09-01 17:46:49 | 44.76299 | 20.77390 | 85° | 122km/h | 11162m | 5.3m/s | -49.3°C | 27.5% | 0hPa | 0V | 00:00:00 | 00:00:00 | 00:00:00 | |
| LZ4TU-5 | 2026-09-01 17:45:28 | 44.76055 | 20.73949 | 82° | 113km/h | 10685m | 8.7m/s | -45.8°C | 24.6% | 0hPa | 0V | 00:00:00 | 00:00:00 | 00:00:00 | |
| LZ4TU-5 | 2026-09-01 17:44:05 | 44.75786 | 20.70680 | 87° | 110km/h | 10234m | 6.7m/s | -42.7°C | 21.1% | 0hPa | 0V | 00:00:00 | 00:00:00 | 00:00:00 | |
| LZ4TU-5 | 2026-09-01 17:44:00 | 44.75768 | 20.70480 | 82° | 108km/h | 10207m | 4.7m/s | -42.6°C | 21.0% | 0hPa | 0V | 00:00:00 | 00:00:00 | 00:00:00 | |
| LZ4TU-5 | 2026-09-01 17:42:46 | 44.75611 | 20.67811 | 84° | 115km/h | 9803m | 7.3m/s | -39.7°C | 18.5% | 0hPa | 0V | 00:00:00 | 00:00:00 | 00:00:00 | |
| LZ4TU-5 | 2026-09-01 17:42:41 | 44.75600 | 20.67643 | 89° | 78km/h | 9771m | 6.2m/s | -39.5°C | 17.9% | 0hPa | 0V | 00:00:00 | 00:00:00 | 00:00:00 | |
| LZ4TU-5 | 2026-09-01 17:41:25 | 44.75563 | 20.65199 | 87° | 82km/h | 9342m | 8.3m/s | -37.0°C | 29.0% | 0hPa | 0V | 00:00:00 | 00:00:00 | 00:00:00 | |
| LZ4TU-5 | 2026-09-01 17:41:20 | 44.75543 | 20.65021 | 80° | 93km/h | 9313m | 5.4m/s | -36.9°C | 30.9% | 0hPa | 0V | 00:00:00 | 00:00:00 | 00:00:00 | |
| LZ4TU-5 | 2026-09-01 17:40:06 | 44.75440 | 20.62844 | 90° | 97km/h | 8877m | 4.8m/s | -33.2°C | 34.4% | 0hPa | 0V | 00:00:00 | 00:00:00 | 00:00:00 | |
| LZ4TU-5 | 2026-09-01 17:40:02 | 44.75434 | 20.62724 | 85° | 69km/h | 8854m | 5.8m/s | -33.0°C | 33.7% | 0hPa | 0V | 00:00:00 | 00:00:00 | 00:00:00 | |
| LZ4TU-5 | 2026-09-01 17:39:57 | 44.75430 | 20.62595 | 81° | 88km/h | 8826m | 8.4m/s | -32.7°C | 33.0% | 0hPa | 0V | 00:00:00 | 00:00:00 | 00:00:00 | |
| LZ4TU-5 | 2026-09-01 17:39:52 | 44.75412 | 20.62428 | 94° | 97km/h | 8791m | 7.5m/s | -32.4°C | 32.2% | 0hPa | 0V | 00:00:00 | 00:00:00 | 00:00:00 | |
| LZ4TU-5 | 2026-09-01 17:38:43 | 44.75415 | 20.60323 | 100° | 82km/h | 8384m | 6.3m/s | -28.6°C | 24.8% | 0hPa | 0V | 00:00:00 | 00:00:00 | 00:00:00 | |
| LZ4TU-5 | 2026-09-01 17:38:39 | 44.75436 | 20.60197 | 94° | 89km/h | 8362m | 5.1m/s | -28.4°C | 24.4% | 0hPa | 0V | 00:00:00 | 00:00:00 | 00:00:00 | |
| LZ4TU-5 | 2026-09-01 17:37:30 | 44.75495 | 20.58159 | 91° | 110km/h | 7958m | 2.6m/s | -25.6°C | 36.6% | 0hPa | 0V | 00:00:00 | 00:00:00 | 00:00:00 | |
| LZ4TU-5 | 2026-09-01 17:37:26 | 44.75499 | 20.58039 | 98° | 64km/h | 7933m | 6.8m/s | -25.5°C | 36.2% | 0hPa | 0V | 00:00:00 | 00:00:00 | 00:00:00 | |
| LZ4TU-5 | 2026-09-01 17:36:16 | 44.75625 | 20.56051 | 109° | 64km/h | 7549m | 6.1m/s | -22.2°C | 40.3% | 0hPa | 0V | 00:00:00 | 00:00:00 | 00:00:00 | |
| LZ4TU-5 | 2026-09-01 17:35:08 | 44.75647 | 20.54316 | 75° | 89km/h | 7170m | 4.6m/s | -19.0°C | 23.2% | 0hPa | 0V | 00:00:00 | 00:00:00 | 00:00:00 | |
| LZ4TU-5 | 2026-09-01 17:35:03 | 44.75634 | 20.54193 | 100° | 55km/h | 7140m | 7.4m/s | -18.8°C | 15.7% | 0hPa | 0V | 00:00:00 | 00:00:00 | 00:00:00 | |
| LZ4TU-5 | 2026-09-01 17:33:55 | 44.75600 | 20.52721 | 95° | 49km/h | 6750m | 5.9m/s | -16.3°C | 5.2% | 0hPa | 0V | 00:00:00 | 00:00:00 | 00:00:00 | |
| LZ4TU-5 | 2026-09-01 17:33:50 | 44.75612 | 20.52636 | 97° | 75km/h | 6724m | 4.2m/s | -16.2°C | 5.7% | 0hPa | 0V | 00:00:00 | 00:00:00 | 00:00:00 | |
| LZ4TU-5 | 2026-09-01 17:33:44 | 44.75593 | 20.52498 | 57° | 51km/h | 6697m | 4.5m/s | -16.0°C | 6.6% | 0hPa | 0V | 00:00:00 | 00:00:00 | 00:00:00 |